<?xml version='1.0' encoding='UTF-8'?><gpx version="1.1" creator="JPX - https://github.com/jenetics/jpx" xmlns="http://www.topografix.com/GPX/1/1"><trk><trkseg><trkpt lat="43.31124129010158" lon="10.523212781190736"><ele>15.0</ele><time>2026-04-25T05:25:24Z</time></trkpt><trkpt lat="43.31116607408429" lon="10.523235428645807"><ele>15.0</ele><time>2026-04-25T05:25:30Z</time></trkpt><trkpt lat="43.31109218792075" lon="10.523261328287337"><ele>15.0</ele><time>2026-04-25T05:25:36Z</time></trkpt><trkpt lat="43.31103770136571" lon="10.523304783642233"><ele>15.0</ele><time>2026-04-25T05:25:40Z</time></trkpt><trkpt lat="43.31097560025621" lon="10.523336095163828"><ele>15.0</ele><time>2026-04-25T05:25:45Z</time></trkpt><trkpt lat="43.31090528063138" lon="10.523364419510152"><ele>15.0</ele><time>2026-04-25T05:25:51Z</time></trkpt><trkpt lat="43.31084750053351" lon="10.523398979628531"><ele>15.0</ele><time>2026-04-25T05:25:56Z</time></trkpt><trkpt lat="43.31078121307651" lon="10.523441153688678"><ele>15.0</ele><time>2026-04-25T05:26:02Z</time></trkpt><trkpt lat="43.310727948248015" lon="10.523487424088176"><ele>15.0</ele><time>2026-04-25T05:26:07Z</time></trkpt><trkpt lat="43.31066703681232" lon="10.523531035600412"><ele>15.0</ele><time>2026-04-25T05:26:12Z</time></trkpt><trkpt lat="43.310619916953634" lon="10.523453025195051"><ele>15.0</ele><time>2026-04-25T05:26:17Z</time></trkpt><trkpt lat="43.31057127804891" lon="10.523393559882877"><ele>15.0</ele><time>2026-04-25T05:26:22Z</time></trkpt><trkpt lat="43.310521844745224" lon="10.523309854639095"><ele>15.0</ele><time>2026-04-25T05:26:28Z</time></trkpt><trkpt lat="43.31047673003784" lon="10.52323757227302"><ele>15.0</ele><time>2026-04-25T05:26:32Z</time></trkpt><trkpt lat="43.31048994114114" lon="10.523137130344905"><ele>14.714285714285715</ele><time>2026-04-25T05:26:37Z</time></trkpt><trkpt lat="43.310472649549155" lon="10.5230413620269"><ele>14.428571428571427</ele><time>2026-04-25T05:26:42Z</time></trkpt><trkpt lat="43.310449125930845" lon="10.52295029995864"><ele>14.142857142857142</ele><time>2026-04-25T05:26:47Z</time></trkpt><trkpt lat="43.3104312744055" lon="10.522854882899644"><ele>13.857142857142858</ele><time>2026-04-25T05:26:52Z</time></trkpt><trkpt lat="43.310406275436186" lon="10.52276677237"><ele>13.571428571428573</ele><time>2026-04-25T05:26:58.001Z</time></trkpt><trkpt lat="43.3103638623351" lon="10.522679166869539"><ele>13.285714285714285</ele><time>2026-04-25T05:27:03.001Z</time></trkpt><trkpt lat="43.31031494089372" lon="10.522611283264736"><ele>13.0</ele><time>2026-04-25T05:27:07.001Z</time></trkpt><trkpt lat="43.31028523320149" lon="10.522518745588476"><ele>13.0</ele><time>2026-04-25T05:27:12.001Z</time></trkpt><trkpt lat="43.31029142537838" lon="10.52240398401932"><ele>13.0</ele><time>2026-04-25T05:27:17.001Z</time></trkpt><trkpt lat="43.3102858257732" lon="10.522311638657984"><ele>13.0</ele><time>2026-04-25T05:27:21.001Z</time></trkpt><trkpt lat="43.31026330653066" lon="10.522217964060237"><ele>13.0</ele><time>2026-04-25T05:27:26.001Z</time></trkpt><trkpt lat="43.3102491903966" lon="10.522122317901594"><ele>13.0</ele><time>2026-04-25T05:27:31Z</time></trkpt><trkpt lat="43.31023017569253" lon="10.52202850442333"><ele>13.0</ele><time>2026-04-25T05:27:36Z</time></trkpt><trkpt lat="43.310193128195955" lon="10.521944394408324"><ele>13.0</ele><time>2026-04-25T05:27:41Z</time></trkpt><trkpt lat="43.31016794863271" lon="10.521853850870848"><ele>13.0</ele><time>2026-04-25T05:27:46Z</time></trkpt><trkpt lat="43.310153212667814" lon="10.521749424608549"><ele>13.0</ele><time>2026-04-25T05:27:51Z</time></trkpt><trkpt lat="43.310117179852085" lon="10.521667575081779"><ele>13.0</ele><time>2026-04-25T05:27:56Z</time></trkpt><trkpt lat="43.310084863284004" lon="10.521574650986715"><ele>13.0</ele><time>2026-04-25T05:28:02Z</time></trkpt><trkpt lat="43.310049425098" lon="10.521482105288417"><ele>13.0</ele><time>2026-04-25T05:28:08Z</time></trkpt><trkpt lat="43.31000710029495" lon="10.521405908123862"><ele>13.0</ele><time>2026-04-25T05:28:13Z</time></trkpt><trkpt lat="43.30997208322154" lon="10.52132253279525"><ele>13.0</ele><time>2026-04-25T05:28:18Z</time></trkpt><trkpt lat="43.30997215135139" lon="10.521221638108015"><ele>13.0</ele><time>2026-04-25T05:28:23Z</time></trkpt><trkpt lat="43.30993197373603" lon="10.521145430698812"><ele>13.0</ele><time>2026-04-25T05:28:29Z</time></trkpt><trkpt lat="43.309890671337506" lon="10.521074493087037"><ele>13.0</ele><time>2026-04-25T05:28:34Z</time></trkpt><trkpt lat="43.30985700956158" lon="10.520992467468936"><ele>13.0</ele><time>2026-04-25T05:28:39Z</time></trkpt><trkpt lat="43.309828190903254" lon="10.52090450307837"><ele>13.0</ele><time>2026-04-25T05:28:45Z</time></trkpt><trkpt lat="43.309812367865035" lon="10.52081298724069"><ele>13.0</ele><time>2026-04-25T05:28:51Z</time></trkpt><trkpt lat="43.30982504128528" lon="10.520715823078662"><ele>13.0</ele><time>2026-04-25T05:28:56Z</time></trkpt><trkpt lat="43.30983354237453" lon="10.5206180456597"><ele>13.0</ele><time>2026-04-25T05:29:00Z</time></trkpt><trkpt lat="43.309808739980745" lon="10.52051581082515"><ele>13.0</ele><time>2026-04-25T05:29:04Z</time></trkpt><trkpt lat="43.30977734898413" lon="10.520425606592774"><ele>13.0</ele><time>2026-04-25T05:29:09.001Z</time></trkpt><trkpt lat="43.30975610270545" lon="10.520333902949094"><ele>13.0</ele><time>2026-04-25T05:29:15.001Z</time></trkpt><trkpt lat="43.3097156841932" lon="10.520254276402195"><ele>13.0</ele><time>2026-04-25T05:29:20.001Z</time></trkpt><trkpt lat="43.309659140947744" lon="10.520200364791227"><ele>13.0</ele><time>2026-04-25T05:29:25.001Z</time></trkpt><trkpt lat="43.309622551137096" lon="10.520104640316776"><ele>13.0</ele><time>2026-04-25T05:29:31Z</time></trkpt><trkpt lat="43.30964438708476" lon="10.520008159413699"><ele>12.857142857142856</ele><time>2026-04-25T05:29:35Z</time></trkpt><trkpt lat="43.30961723622461" lon="10.519904056990017"><ele>12.714285714285715</ele><time>2026-04-25T05:29:40Z</time></trkpt><trkpt lat="43.309572836501964" lon="10.519830392008508"><ele>12.571428571428571</ele><time>2026-04-25T05:29:44Z</time></trkpt><trkpt lat="43.30956538842824" lon="10.519733958087647"><ele>12.428571428571427</ele><time>2026-04-25T05:29:49Z</time></trkpt><trkpt lat="43.30955894479998" lon="10.519642776204682"><ele>12.285714285714285</ele><time>2026-04-25T05:29:53Z</time></trkpt><trkpt lat="43.30953746672525" lon="10.519551181706872"><ele>12.142857142857142</ele><time>2026-04-25T05:29:58Z</time></trkpt><trkpt lat="43.30951067456239" lon="10.519468805254776"><ele>12.0</ele><time>2026-04-25T05:30:02Z</time></trkpt><trkpt lat="43.309479779952426" lon="10.519384691789936"><ele>11.857142857142856</ele><time>2026-04-25T05:30:07Z</time></trkpt><trkpt lat="43.30946323310392" lon="10.519295423124628"><ele>11.714285714285714</ele><time>2026-04-25T05:30:12Z</time></trkpt><trkpt lat="43.30944274225184" lon="10.519203655096439"><ele>11.571428571428571</ele><time>2026-04-25T05:30:17Z</time></trkpt><trkpt lat="43.30940823189761" lon="10.5191113022856"><ele>11.428571428571427</ele><time>2026-04-25T05:30:22Z</time></trkpt><trkpt lat="43.3093469082787" lon="10.519041394727552"><ele>11.285714285714285</ele><time>2026-04-25T05:30:27Z</time></trkpt><trkpt lat="43.309295751676984" lon="10.518972553010752"><ele>11.142857142857142</ele><time>2026-04-25T05:30:31Z</time></trkpt><trkpt lat="43.309243553883206" lon="10.51890066505798"><ele>11.0</ele><time>2026-04-25T05:30:36Z</time></trkpt><trkpt lat="43.30920511681723" lon="10.518814221524568"><ele>11.142857142857142</ele><time>2026-04-25T05:30:40Z</time></trkpt><trkpt lat="43.3091832947234" lon="10.5187273792341"><ele>11.285714285714285</ele><time>2026-04-25T05:30:44Z</time></trkpt><trkpt lat="43.30919035301126" lon="10.518631454287286"><ele>11.428571428571427</ele><time>2026-04-25T05:30:48Z</time></trkpt><trkpt lat="43.30920946961585" lon="10.518535077645518"><ele>11.571428571428571</ele><time>2026-04-25T05:30:53Z</time></trkpt><trkpt lat="43.309189157306875" lon="10.518453174909984"><ele>11.714285714285714</ele><time>2026-04-25T05:30:57Z</time></trkpt><trkpt lat="43.30913660490586" lon="10.518391418091051"><ele>11.857142857142856</ele><time>2026-04-25T05:31:02Z</time></trkpt><trkpt lat="43.30909633520698" lon="10.51831243418446"><ele>12.0</ele><time>2026-04-25T05:31:07Z</time></trkpt><trkpt lat="43.309079023512" lon="10.518218575329815"><ele>11.999999999999998</ele><time>2026-04-25T05:31:13Z</time></trkpt><trkpt lat="43.309092995132715" lon="10.518122369421356"><ele>12.0</ele><time>2026-04-25T05:31:19Z</time></trkpt><trkpt lat="43.30914863062913" lon="10.51805817866321"><ele>12.0</ele><time>2026-04-25T05:31:23Z</time></trkpt><trkpt lat="43.30919570636661" lon="10.517967967755306"><ele>12.0</ele><time>2026-04-25T05:31:27Z</time></trkpt><trkpt lat="43.30924165453309" lon="10.517904694722452"><ele>12.0</ele><time>2026-04-25T05:31:31Z</time></trkpt><trkpt lat="43.30924479249797" lon="10.51780242147082"><ele>11.999999999999998</ele><time>2026-04-25T05:31:36Z</time></trkpt><trkpt lat="43.30926912045027" lon="10.517707106346895"><ele>12.0</ele><time>2026-04-25T05:31:41Z</time></trkpt><trkpt lat="43.309255208650065" lon="10.517610459859874"><ele>11.999999999999998</ele><time>2026-04-25T05:31:45Z</time></trkpt><trkpt lat="43.309225942727025" lon="10.517529528418198"><ele>12.0</ele><time>2026-04-25T05:31:49Z</time></trkpt><trkpt lat="43.309195663794554" lon="10.517451570543734"><ele>12.0</ele><time>2026-04-25T05:31:54Z</time></trkpt><trkpt lat="43.30914763756325" lon="10.517391015085892"><ele>12.0</ele><time>2026-04-25T05:32:00Z</time></trkpt><trkpt lat="43.309117620961814" lon="10.517309618610424"><ele>12.0</ele><time>2026-04-25T05:32:06Z</time></trkpt><trkpt lat="43.309102536151805" lon="10.517219588285219"><ele>11.999999999999998</ele><time>2026-04-25T05:32:12Z</time></trkpt><trkpt lat="43.30907741837167" lon="10.517128814697026"><ele>12.0</ele><time>2026-04-25T05:32:15Z</time></trkpt><trkpt lat="43.309042145205666" lon="10.51703301114339"><ele>11.999999999999998</ele><time>2026-04-25T05:32:18Z</time></trkpt><trkpt lat="43.30902354066838" lon="10.516944828481138"><ele>12.0</ele><time>2026-04-25T05:32:23Z</time></trkpt><trkpt lat="43.30900224975504" lon="10.516861326383557"><ele>12.0</ele><time>2026-04-25T05:32:29Z</time></trkpt><trkpt lat="43.30897058822952" lon="10.516768640893234"><ele>12.0</ele><time>2026-04-25T05:32:35Z</time></trkpt><trkpt lat="43.308948258416734" lon="10.516685804870681"><ele>12.0</ele><time>2026-04-25T05:32:40Z</time></trkpt><trkpt lat="43.308905397253014" lon="10.516608838088287"><ele>11.999999999999998</ele><time>2026-04-25T05:32:45Z</time></trkpt><trkpt lat="43.308874859474564" lon="10.516522262691574"><ele>12.0</ele><time>2026-04-25T05:32:52Z</time></trkpt><trkpt lat="43.30886250753832" lon="10.516420273932932"><ele>11.999999999999998</ele><time>2026-04-25T05:32:58Z</time></trkpt><trkpt lat="43.3088512700434" lon="10.51633410926357"><ele>12.0</ele><time>2026-04-25T05:33:02Z</time></trkpt><trkpt lat="43.308838954524134" lon="10.516245887862304"><ele>12.0</ele><time>2026-04-25T05:33:11Z</time></trkpt><trkpt lat="43.30883654961466" lon="10.516157411343976"><ele>12.0</ele><time>2026-04-25T05:33:16Z</time></trkpt><trkpt lat="43.308860611440814" lon="10.516066327543777"><ele>12.0</ele><time>2026-04-25T05:33:21Z</time></trkpt><trkpt lat="43.30891655785633" lon="10.516003484146514"><ele>11.999999999999998</ele><time>2026-04-25T05:33:28Z</time></trkpt><trkpt lat="43.30897183796977" lon="10.515946830352673"><ele>12.0</ele><time>2026-04-25T05:33:33Z</time></trkpt><trkpt lat="43.30903224531902" lon="10.5159006191735"><ele>11.571428571428571</ele><time>2026-04-25T05:33:38Z</time></trkpt><trkpt lat="43.30909338195028" lon="10.515861739437678"><ele>11.142857142857142</ele><time>2026-04-25T05:33:44Z</time></trkpt><trkpt lat="43.309155186039796" lon="10.515844454893292"><ele>10.714285714285715</ele><time>2026-04-25T05:33:48Z</time></trkpt><trkpt lat="43.30921846411749" lon="10.515800519006552"><ele>10.285714285714285</ele><time>2026-04-25T05:33:54Z</time></trkpt><trkpt lat="43.30927148366592" lon="10.51574361159828"><ele>9.857142857142858</ele><time>2026-04-25T05:33:59Z</time></trkpt><trkpt lat="43.309327891583656" lon="10.5156761892676"><ele>9.428571428571429</ele><time>2026-04-25T05:34:05Z</time></trkpt><trkpt lat="43.309396603180815" lon="10.515632668200801"><ele>9.0</ele><time>2026-04-25T05:34:11Z</time></trkpt><trkpt lat="43.30945915489181" lon="10.515586382171243"><ele>9.000000000000002</ele><time>2026-04-25T05:34:15Z</time></trkpt><trkpt lat="43.30944110416179" lon="10.515486014701933"><ele>9.0</ele><time>2026-04-25T05:34:21Z</time></trkpt><trkpt lat="43.309421806290494" lon="10.515395311630268"><ele>9.0</ele><time>2026-04-25T05:34:26Z</time></trkpt><trkpt lat="43.309402525672795" lon="10.515305706698886"><ele>9.0</ele><time>2026-04-25T05:34:32Z</time></trkpt><trkpt lat="43.30937925116462" lon="10.515216909980676"><ele>9.0</ele><time>2026-04-25T05:34:37Z</time></trkpt><trkpt lat="43.30933747056438" lon="10.515150610438075"><ele>9.000000000000002</ele><time>2026-04-25T05:34:42Z</time></trkpt><trkpt lat="43.30931172131918" lon="10.5150635427686"><ele>9.0</ele><time>2026-04-25T05:34:48Z</time></trkpt><trkpt lat="43.30928751957807" lon="10.514976805115724"><ele>9.0</ele><time>2026-04-25T05:34:52Z</time></trkpt><trkpt lat="43.309295970609725" lon="10.514874539798267"><ele>9.0</ele><time>2026-04-25T05:34:57.027Z</time></trkpt><trkpt lat="43.30928606993979" lon="10.514762818383918"><ele>9.0</ele><time>2026-04-25T05:35:02.676Z</time></trkpt><trkpt lat="43.30927265422123" lon="10.514625299835172"><ele>9.0</ele><time>2026-04-25T05:35:04.526Z</time></trkpt><trkpt lat="43.30919769885356" lon="10.5145423822376"><ele>9.0</ele><time>2026-04-25T05:35:10.026Z</time></trkpt><trkpt lat="43.309129943313316" lon="10.514521527817031"><ele>9.0</ele><time>2026-04-25T05:35:11.027Z</time></trkpt><trkpt lat="43.3090305125398" lon="10.514507319685832"><ele>8.833333333333334</ele><time>2026-04-25T05:35:13.026Z</time></trkpt><trkpt lat="43.30914086522236" lon="10.514405715725877"><ele>8.666666666666666</ele><time>2026-04-25T05:35:18Z</time></trkpt><trkpt lat="43.30915940870937" lon="10.514312134897178"><ele>8.5</ele><time>2026-04-25T05:35:19Z</time></trkpt><trkpt lat="43.309106229313976" lon="10.514248128407392"><ele>8.333333333333332</ele><time>2026-04-25T05:35:28Z</time></trkpt><trkpt lat="43.309087674252936" lon="10.514156601670047"><ele>8.166666666666666</ele><time>2026-04-25T05:35:33Z</time></trkpt><trkpt lat="43.30902849147921" lon="10.514098445940757"><ele>8.0</ele><time>2026-04-25T05:35:39Z</time></trkpt><trkpt lat="43.30897782098169" lon="10.514038776158595"><ele>8.0</ele><time>2026-04-25T05:35:47Z</time></trkpt><trkpt lat="43.30895107853686" lon="10.513952513074399"><ele>7.999999999999999</ele><time>2026-04-25T05:35:52Z</time></trkpt><trkpt lat="43.308920353517294" lon="10.513868953746572"><ele>8.0</ele><time>2026-04-25T05:35:57Z</time></trkpt><trkpt lat="43.308895176671584" lon="10.513780318709202"><ele>8.0</ele><time>2026-04-25T05:36:02Z</time></trkpt><trkpt lat="43.3088654135752" lon="10.51370300043097"><ele>7.999999999999999</ele><time>2026-04-25T05:36:06Z</time></trkpt><trkpt lat="43.308829683358205" lon="10.51362244700725"><ele>8.0</ele><time>2026-04-25T05:36:10Z</time></trkpt><trkpt lat="43.30879223504683" lon="10.513551310243189"><ele>8.0</ele><time>2026-04-25T05:36:14Z</time></trkpt><trkpt lat="43.30875934266771" lon="10.513471275932083"><ele>8.0</ele><time>2026-04-25T05:36:18Z</time></trkpt><trkpt lat="43.3087204586794" lon="10.513383248801281"><ele>7.999999999999999</ele><time>2026-04-25T05:36:23Z</time></trkpt><trkpt lat="43.30868705447091" lon="10.513290098552169"><ele>8.0</ele><time>2026-04-25T05:36:28Z</time></trkpt><trkpt lat="43.30864855349283" lon="10.513216914080985"><ele>8.0</ele><time>2026-04-25T05:36:32Z</time></trkpt><trkpt lat="43.30862081832541" lon="10.513121684326386"><ele>7.999999999999999</ele><time>2026-04-25T05:36:36Z</time></trkpt><trkpt lat="43.30858915806617" lon="10.513032341863415"><ele>8.0</ele><time>2026-04-25T05:36:40Z</time></trkpt><trkpt lat="43.308551241281954" lon="10.512956413209583"><ele>8.0</ele><time>2026-04-25T05:36:44Z</time></trkpt><trkpt lat="43.308503080603955" lon="10.512868740437057"><ele>7.857142857142857</ele><time>2026-04-25T05:36:49Z</time></trkpt><trkpt lat="43.30844832603433" lon="10.512793813833555"><ele>7.7142857142857135</ele><time>2026-04-25T05:36:54Z</time></trkpt><trkpt lat="43.30840268543582" lon="10.512733075653529"><ele>7.571428571428571</ele><time>2026-04-25T05:36:58Z</time></trkpt><trkpt lat="43.30836388625988" lon="10.512651192290859"><ele>7.428571428571429</ele><time>2026-04-25T05:37:03Z</time></trkpt><trkpt lat="43.30834551787814" lon="10.512563570573441"><ele>7.285714285714286</ele><time>2026-04-25T05:37:07Z</time></trkpt><trkpt lat="43.30831253678747" lon="10.512478127805727"><ele>7.142857142857142</ele><time>2026-04-25T05:37:12Z</time></trkpt><trkpt lat="43.30827982694206" lon="10.512401612416912"><ele>7.0</ele><time>2026-04-25T05:37:16Z</time></trkpt><trkpt lat="43.30822780162624" lon="10.512322481801045"><ele>7.0</ele><time>2026-04-25T05:37:21Z</time></trkpt><trkpt lat="43.3081922362715" lon="10.512237054906088"><ele>7.0</ele><time>2026-04-25T05:37:26Z</time></trkpt><trkpt lat="43.30816578125658" lon="10.512151786722574"><ele>7.0</ele><time>2026-04-25T05:37:31Z</time></trkpt><trkpt lat="43.3081289323539" lon="10.512068523417064"><ele>7.0</ele><time>2026-04-25T05:37:35Z</time></trkpt><trkpt lat="43.30808241673394" lon="10.511993280076258"><ele>7.0</ele><time>2026-04-25T05:37:39Z</time></trkpt><trkpt lat="43.30804566563604" lon="10.511920029459773"><ele>7.0</ele><time>2026-04-25T05:37:44Z</time></trkpt><trkpt lat="43.3080122022166" lon="10.511833317847193"><ele>7.0</ele><time>2026-04-25T05:37:49Z</time></trkpt><trkpt lat="43.307966272452475" lon="10.511755010573617"><ele>7.0</ele><time>2026-04-25T05:37:53Z</time></trkpt><trkpt lat="43.30793825128144" lon="10.511677278774583"><ele>7.0</ele><time>2026-04-25T05:37:56Z</time></trkpt><trkpt lat="43.307898208670856" lon="10.511602234496415"><ele>7.0</ele><time>2026-04-25T05:38:00Z</time></trkpt><trkpt lat="43.30785828762495" lon="10.511532585911018"><ele>7.0</ele><time>2026-04-25T05:38:05Z</time></trkpt><trkpt lat="43.30782653013205" lon="10.511451350065597"><ele>7.0</ele><time>2026-04-25T05:38:10Z</time></trkpt><trkpt lat="43.30778361214477" lon="10.511365780959526"><ele>7.0</ele><time>2026-04-25T05:38:15Z</time></trkpt><trkpt lat="43.30775153133084" lon="10.511291233397207"><ele>7.0</ele><time>2026-04-25T05:38:19Z</time></trkpt><trkpt lat="43.30771075511594" lon="10.511201492730368"><ele>7.142857142857142</ele><time>2026-04-25T05:38:24Z</time></trkpt><trkpt lat="43.307670247602154" lon="10.511112506206636"><ele>7.285714285714286</ele><time>2026-04-25T05:38:29Z</time></trkpt><trkpt lat="43.307626880054194" lon="10.511034843343568"><ele>7.428571428571429</ele><time>2026-04-25T05:38:34Z</time></trkpt><trkpt lat="43.30759257087263" lon="10.510959664220184"><ele>7.571428571428571</ele><time>2026-04-25T05:38:38Z</time></trkpt><trkpt lat="43.3075527042457" lon="10.51088116814863"><ele>7.7142857142857135</ele><time>2026-04-25T05:38:42Z</time></trkpt><trkpt lat="43.30751217455791" lon="10.510807729171129"><ele>7.857142857142857</ele><time>2026-04-25T05:38:46Z</time></trkpt><trkpt lat="43.30747977431182" lon="10.510720221417559"><ele>8.0</ele><time>2026-04-25T05:38:51Z</time></trkpt><trkpt lat="43.30743534354785" lon="10.51063986702233"><ele>8.0</ele><time>2026-04-25T05:38:56Z</time></trkpt><trkpt lat="43.30740388439116" lon="10.510559475552073"><ele>7.999999999999999</ele><time>2026-04-25T05:39:00Z</time></trkpt><trkpt lat="43.30735912195178" lon="10.510497957326491"><ele>8.0</ele><time>2026-04-25T05:39:04Z</time></trkpt><trkpt lat="43.3073214371679" lon="10.510407858745873"><ele>8.0</ele><time>2026-04-25T05:39:10Z</time></trkpt><trkpt lat="43.30728066365662" lon="10.510324806853152"><ele>7.999999999999999</ele><time>2026-04-25T05:39:14Z</time></trkpt><trkpt lat="43.30723926029474" lon="10.510252424614169"><ele>8.0</ele><time>2026-04-25T05:39:18Z</time></trkpt><trkpt lat="43.30720513168152" lon="10.510173193689987"><ele>8.0</ele><time>2026-04-25T05:39:22Z</time></trkpt><trkpt lat="43.30717234002957" lon="10.510091158685865"><ele>7.857142857142857</ele><time>2026-04-25T05:39:27Z</time></trkpt><trkpt lat="43.30714274520327" lon="10.510007393191938"><ele>7.7142857142857135</ele><time>2026-04-25T05:39:32Z</time></trkpt><trkpt lat="43.307097931459346" lon="10.509926974320807"><ele>7.571428571428571</ele><time>2026-04-25T05:39:36Z</time></trkpt><trkpt lat="43.30705776241185" lon="10.509851754080506"><ele>7.428571428571429</ele><time>2026-04-25T05:39:39Z</time></trkpt><trkpt lat="43.30702162770245" lon="10.509773582688139"><ele>7.285714285714286</ele><time>2026-04-25T05:39:43Z</time></trkpt><trkpt lat="43.30697534725173" lon="10.50969645777503"><ele>7.142857142857142</ele><time>2026-04-25T05:39:48Z</time></trkpt><trkpt lat="43.30693070925835" lon="10.50961148279994"><ele>7.0</ele><time>2026-04-25T05:39:53Z</time></trkpt><trkpt lat="43.306903089610316" lon="10.509522674163813"><ele>6.857142857142857</ele><time>2026-04-25T05:39:59Z</time></trkpt><trkpt lat="43.30685494441402" lon="10.509440725449233"><ele>6.714285714285714</ele><time>2026-04-25T05:40:04Z</time></trkpt><trkpt lat="43.306814081100626" lon="10.509347142147142"><ele>6.571428571428571</ele><time>2026-04-25T05:40:09Z</time></trkpt><trkpt lat="43.30678190295283" lon="10.509252580584837"><ele>6.428571428571429</ele><time>2026-04-25T05:40:13Z</time></trkpt><trkpt lat="43.30674213678048" lon="10.509183391910582"><ele>6.285714285714286</ele><time>2026-04-25T05:40:17Z</time></trkpt><trkpt lat="43.30669932264117" lon="10.509104854714721"><ele>6.142857142857142</ele><time>2026-04-25T05:40:21Z</time></trkpt><trkpt lat="43.30665931968081" lon="10.509023326610974"><ele>6.0</ele><time>2026-04-25T05:40:26Z</time></trkpt><trkpt lat="43.306627275437286" lon="10.508948307202093"><ele>5.999999999999999</ele><time>2026-04-25T05:40:30Z</time></trkpt><trkpt lat="43.3065844262903" lon="10.508863751389743"><ele>6.0</ele><time>2026-04-25T05:40:35Z</time></trkpt><trkpt lat="43.306540195510784" lon="10.508800458928985"><ele>6.0</ele><time>2026-04-25T05:40:39Z</time></trkpt><trkpt lat="43.30649398833488" lon="10.50871712056347"><ele>6.0</ele><time>2026-04-25T05:40:44Z</time></trkpt><trkpt lat="43.30645293009716" lon="10.508635279274845"><ele>6.0</ele><time>2026-04-25T05:40:49Z</time></trkpt><trkpt lat="43.3064210773615" lon="10.508549277801826"><ele>5.999999999999999</ele><time>2026-04-25T05:40:54Z</time></trkpt><trkpt lat="43.30638061401549" lon="10.50847446001862"><ele>6.0</ele><time>2026-04-25T05:40:58Z</time></trkpt><trkpt lat="43.30633649991102" lon="10.50840850968095"><ele>6.142857142857142</ele><time>2026-04-25T05:41:02Z</time></trkpt><trkpt lat="43.306301131943755" lon="10.508324532520271"><ele>6.285714285714286</ele><time>2026-04-25T05:41:07Z</time></trkpt><trkpt lat="43.30625167725573" lon="10.508235110704673"><ele>6.428571428571429</ele><time>2026-04-25T05:41:12Z</time></trkpt><trkpt lat="43.3062107018197" lon="10.508161243855005"><ele>6.571428571428571</ele><time>2026-04-25T05:41:16Z</time></trkpt><trkpt lat="43.30617380222031" lon="10.50806908206437"><ele>6.714285714285714</ele><time>2026-04-25T05:41:21Z</time></trkpt><trkpt lat="43.30613714060645" lon="10.5079905888196"><ele>6.857142857142857</ele><time>2026-04-25T05:41:26Z</time></trkpt><trkpt lat="43.306098669331234" lon="10.507913200692188"><ele>7.0</ele><time>2026-04-25T05:41:31Z</time></trkpt><trkpt lat="43.3060576268153" lon="10.507834834035165"><ele>7.0</ele><time>2026-04-25T05:41:36Z</time></trkpt><trkpt lat="43.30602050363462" lon="10.50775395904735"><ele>7.0</ele><time>2026-04-25T05:41:41Z</time></trkpt><trkpt lat="43.30599095380918" lon="10.507662517036914"><ele>7.0</ele><time>2026-04-25T05:41:46Z</time></trkpt><trkpt lat="43.305950255528224" lon="10.507595594178385"><ele>7.0</ele><time>2026-04-25T05:41:50Z</time></trkpt><trkpt lat="43.305916060756125" lon="10.507521646194608"><ele>7.0</ele><time>2026-04-25T05:41:54Z</time></trkpt><trkpt lat="43.30588162967841" lon="10.507437525267838"><ele>7.0</ele><time>2026-04-25T05:41:59Z</time></trkpt><trkpt lat="43.30583784072348" lon="10.507357328517044"><ele>7.0</ele><time>2026-04-25T05:42:04Z</time></trkpt><trkpt lat="43.30580463704212" lon="10.507260505767492"><ele>7.0</ele><time>2026-04-25T05:42:10Z</time></trkpt><trkpt lat="43.30578183656426" lon="10.507155603727202"><ele>7.0</ele><time>2026-04-25T05:42:15Z</time></trkpt><trkpt lat="43.30573358465812" lon="10.507071991419306"><ele>7.0</ele><time>2026-04-25T05:42:20Z</time></trkpt><trkpt lat="43.30568704139205" lon="10.507003120046985"><ele>7.0</ele><time>2026-04-25T05:42:24Z</time></trkpt><trkpt lat="43.30564290140052" lon="10.506919807113954"><ele>7.0</ele><time>2026-04-25T05:42:29Z</time></trkpt><trkpt lat="43.30559980547918" lon="10.506838305346802"><ele>7.0</ele><time>2026-04-25T05:42:34Z</time></trkpt><trkpt lat="43.305556398719425" lon="10.506757039045858"><ele>7.0</ele><time>2026-04-25T05:42:38Z</time></trkpt><trkpt lat="43.30551721668636" lon="10.506670749502081"><ele>6.714285714285714</ele><time>2026-04-25T05:42:43Z</time></trkpt><trkpt lat="43.30547982397873" lon="10.506595003143897"><ele>6.428571428571429</ele><time>2026-04-25T05:42:47Z</time></trkpt><trkpt lat="43.305437455694474" lon="10.506524556073016"><ele>6.142857142857142</ele><time>2026-04-25T05:42:51Z</time></trkpt><trkpt lat="43.30540210750591" lon="10.506449791541332"><ele>5.857142857142858</ele><time>2026-04-25T05:42:55Z</time></trkpt><trkpt lat="43.30536311456125" lon="10.506367913183713"><ele>5.571428571428571</ele><time>2026-04-25T05:43:00Z</time></trkpt><trkpt lat="43.30531956081338" lon="10.506283175126205"><ele>5.285714285714286</ele><time>2026-04-25T05:43:05Z</time></trkpt><trkpt lat="43.30529105916742" lon="10.5062055701777"><ele>5.0</ele><time>2026-04-25T05:43:09Z</time></trkpt><trkpt lat="43.30525585024629" lon="10.506120297876775"><ele>4.857142857142857</ele><time>2026-04-25T05:43:14Z</time></trkpt><trkpt lat="43.305234893355696" lon="10.50601690540456"><ele>4.714285714285714</ele><time>2026-04-25T05:43:21Z</time></trkpt><trkpt lat="43.30518294361679" lon="10.50594811171087"><ele>4.571428571428571</ele><time>2026-04-25T05:43:26Z</time></trkpt><trkpt lat="43.305146269243586" lon="10.505871889402242"><ele>4.428571428571429</ele><time>2026-04-25T05:43:30Z</time></trkpt><trkpt lat="43.3051163010028" lon="10.505780209915244"><ele>4.285714285714286</ele><time>2026-04-25T05:43:35Z</time></trkpt><trkpt lat="43.30506675060928" lon="10.505704549621024"><ele>4.142857142857142</ele><time>2026-04-25T05:43:39Z</time></trkpt><trkpt lat="43.30501466122951" lon="10.505619408523152"><ele>4.0</ele><time>2026-04-25T05:43:43Z</time></trkpt><trkpt lat="43.304981441181454" lon="10.505540744626586"><ele>4.0</ele><time>2026-04-25T05:43:47Z</time></trkpt><trkpt lat="43.30494581867593" lon="10.505467369891717"><ele>3.9999999999999996</ele><time>2026-04-25T05:43:52Z</time></trkpt><trkpt lat="43.304904502686014" lon="10.505386991532255"><ele>4.0</ele><time>2026-04-25T05:43:56Z</time></trkpt><trkpt lat="43.304868805425684" lon="10.50530857012639"><ele>4.0</ele><time>2026-04-25T05:44:01Z</time></trkpt><trkpt lat="43.304832218913006" lon="10.505229571261642"><ele>3.9999999999999996</ele><time>2026-04-25T05:44:05Z</time></trkpt><trkpt lat="43.30478993739325" lon="10.50514747352687"><ele>4.0</ele><time>2026-04-25T05:44:10Z</time></trkpt><trkpt lat="43.304750025008694" lon="10.505077797756496"><ele>4.0</ele><time>2026-04-25T05:44:14Z</time></trkpt><trkpt lat="43.30470872164001" lon="10.504993367120711"><ele>4.0</ele><time>2026-04-25T05:44:19Z</time></trkpt><trkpt lat="43.30465777011433" lon="10.504912312039425"><ele>3.9999999999999996</ele><time>2026-04-25T05:44:25Z</time></trkpt><trkpt lat="43.30460688385422" lon="10.504838088477056"><ele>4.0</ele><time>2026-04-25T05:44:29Z</time></trkpt><trkpt lat="43.304581823290206" lon="10.504757070969882"><ele>4.0</ele><time>2026-04-25T05:44:33Z</time></trkpt><trkpt lat="43.3045472013813" lon="10.504682287915156"><ele>3.9999999999999996</ele><time>2026-04-25T05:44:38Z</time></trkpt><trkpt lat="43.304510237436716" lon="10.50460154685478"><ele>4.0</ele><time>2026-04-25T05:44:43Z</time></trkpt><trkpt lat="43.30447584400047" lon="10.504507389009893"><ele>4.0</ele><time>2026-04-25T05:44:48Z</time></trkpt><trkpt lat="43.30443810967206" lon="10.504431296923132"><ele>4.0</ele><time>2026-04-25T05:44:52Z</time></trkpt><trkpt lat="43.304396677730324" lon="10.504359038041455"><ele>3.9999999999999996</ele><time>2026-04-25T05:44:56Z</time></trkpt><trkpt lat="43.30436551312956" lon="10.504272838109063"><ele>4.0</ele><time>2026-04-25T05:45:00Z</time></trkpt><trkpt lat="43.30432732443083" lon="10.504183686536082"><ele>4.0</ele><time>2026-04-25T05:45:05Z</time></trkpt><trkpt lat="43.304290912338786" lon="10.50409505956168"><ele>3.9999999999999996</ele><time>2026-04-25T05:45:10Z</time></trkpt><trkpt lat="43.30425134078327" lon="10.504004033786359"><ele>4.0</ele><time>2026-04-25T05:45:15Z</time></trkpt><trkpt lat="43.30420374248188" lon="10.503931863093598"><ele>4.0</ele><time>2026-04-25T05:45:19Z</time></trkpt><trkpt lat="43.30416038268339" lon="10.503847138493834"><ele>4.0</ele><time>2026-04-25T05:45:24Z</time></trkpt><trkpt lat="43.30411963966866" lon="10.503760611860312"><ele>3.9999999999999996</ele><time>2026-04-25T05:45:30Z</time></trkpt><trkpt lat="43.30408136778529" lon="10.503676683328573"><ele>4.0</ele><time>2026-04-25T05:45:36Z</time></trkpt><trkpt lat="43.30405033739966" lon="10.503593864537333"><ele>4.0</ele><time>2026-04-25T05:45:40Z</time></trkpt><trkpt lat="43.30401400011737" lon="10.503515628929506"><ele>3.9999999999999996</ele><time>2026-04-25T05:45:44Z</time></trkpt><trkpt lat="43.30397481135181" lon="10.503421994667544"><ele>4.0</ele><time>2026-04-25T05:45:49Z</time></trkpt><trkpt lat="43.303940102037" lon="10.503344860717135"><ele>4.0</ele><time>2026-04-25T05:45:54Z</time></trkpt><trkpt lat="43.30389608087883" lon="10.50325707853693"><ele>3.8571428571428568</ele><time>2026-04-25T05:45:59Z</time></trkpt><trkpt lat="43.30386448736827" lon="10.503175675374875"><ele>3.714285714285714</ele><time>2026-04-25T05:46:03Z</time></trkpt><trkpt lat="43.3038252739397" lon="10.50309828854072"><ele>3.571428571428571</ele><time>2026-04-25T05:46:08Z</time></trkpt><trkpt lat="43.30378952016528" lon="10.503008988547762"><ele>3.4285714285714284</ele><time>2026-04-25T05:46:13Z</time></trkpt><trkpt lat="43.303753220089895" lon="10.502937309766082"><ele>3.2857142857142856</ele><time>2026-04-25T05:46:17Z</time></trkpt><trkpt lat="43.30371682429378" lon="10.502852928017639"><ele>3.1428571428571423</ele><time>2026-04-25T05:46:21Z</time></trkpt><trkpt lat="43.30367065321563" lon="10.502772403798032"><ele>3.0</ele><time>2026-04-25T05:46:26Z</time></trkpt><trkpt lat="43.30363080524132" lon="10.502689951137869"><ele>2.9999999999999996</ele><time>2026-04-25T05:46:31Z</time></trkpt><trkpt lat="43.30359110200353" lon="10.502612275474073"><ele>3.0</ele><time>2026-04-25T05:46:36Z</time></trkpt><trkpt lat="43.30355037206326" lon="10.502539120816007"><ele>3.0</ele><time>2026-04-25T05:46:42Z</time></trkpt><trkpt lat="43.30351315886934" lon="10.502443576513365"><ele>3.0</ele><time>2026-04-25T05:46:47Z</time></trkpt><trkpt lat="43.30347008943792" lon="10.502374392955163"><ele>3.0</ele><time>2026-04-25T05:46:52Z</time></trkpt><trkpt lat="43.3034232778875" lon="10.502292910760247"><ele>2.9999999999999996</ele><time>2026-04-25T05:46:57Z</time></trkpt><trkpt lat="43.30339244230977" lon="10.502200788225462"><ele>3.0</ele><time>2026-04-25T05:47:02Z</time></trkpt><trkpt lat="43.303350129582995" lon="10.502114585911038"><ele>2.9999999999999996</ele><time>2026-04-25T05:47:07Z</time></trkpt><trkpt lat="43.30330332129538" lon="10.502031700592386"><ele>3.0</ele><time>2026-04-25T05:47:12Z</time></trkpt><trkpt lat="43.303261398813376" lon="10.501954439378993"><ele>3.0</ele><time>2026-04-25T05:47:17Z</time></trkpt><trkpt lat="43.30323038289218" lon="10.50187080338005"><ele>3.0</ele><time>2026-04-25T05:47:21Z</time></trkpt><trkpt lat="43.303190751285506" lon="10.501780548438003"><ele>3.0</ele><time>2026-04-25T05:47:25Z</time></trkpt><trkpt lat="43.30315021954899" lon="10.501701544322689"><ele>2.9999999999999996</ele><time>2026-04-25T05:47:29Z</time></trkpt><trkpt lat="43.30311873808158" lon="10.501602667033733"><ele>3.0</ele><time>2026-04-25T05:47:34Z</time></trkpt><trkpt lat="43.30308047472431" lon="10.501531093777327"><ele>2.9999999999999996</ele><time>2026-04-25T05:47:38Z</time></trkpt><trkpt lat="43.303036311448245" lon="10.50144697019089"><ele>3.0</ele><time>2026-04-25T05:47:43Z</time></trkpt><trkpt lat="43.30298639993391" lon="10.501363822346827"><ele>3.0</ele><time>2026-04-25T05:47:48Z</time></trkpt><trkpt lat="43.30294288786007" lon="10.501295839610862"><ele>3.0</ele><time>2026-04-25T05:47:53Z</time></trkpt><trkpt lat="43.302910066837065" lon="10.501216132612353"><ele>3.0</ele><time>2026-04-25T05:47:57Z</time></trkpt><trkpt lat="43.30287721479203" lon="10.501139218270584"><ele>2.9999999999999996</ele><time>2026-04-25T05:48:01Z</time></trkpt><trkpt lat="43.3028407243435" lon="10.501067793747543"><ele>3.0</ele><time>2026-04-25T05:48:05Z</time></trkpt><trkpt lat="43.30280626943663" lon="10.500993817696394"><ele>3.1428571428571423</ele><time>2026-04-25T05:48:09Z</time></trkpt><trkpt lat="43.302771035819816" lon="10.500918442381112"><ele>3.2857142857142856</ele><time>2026-04-25T05:48:13Z</time></trkpt><trkpt lat="43.30273936021546" lon="10.500837644432591"><ele>3.4285714285714284</ele><time>2026-04-25T05:48:17Z</time></trkpt><trkpt lat="43.30270563488079" lon="10.500762590747856"><ele>3.571428571428571</ele><time>2026-04-25T05:48:21Z</time></trkpt><trkpt lat="43.3026620632987" lon="10.50068329078515"><ele>3.714285714285714</ele><time>2026-04-25T05:48:26Z</time></trkpt><trkpt lat="43.302621631981786" lon="10.500614214368548"><ele>3.8571428571428568</ele><time>2026-04-25T05:48:31Z</time></trkpt><trkpt lat="43.30258608076848" lon="10.50053660160356"><ele>4.0</ele><time>2026-04-25T05:48:36Z</time></trkpt><trkpt lat="43.30253769350579" lon="10.500460059114081"><ele>4.0</ele><time>2026-04-25T05:48:41Z</time></trkpt><trkpt lat="43.30251614843792" lon="10.500371893032902"><ele>3.9999999999999996</ele><time>2026-04-25T05:48:45Z</time></trkpt><trkpt lat="43.302482618357324" lon="10.500284955242762"><ele>4.0</ele><time>2026-04-25T05:48:50Z</time></trkpt><trkpt lat="43.302443505357274" lon="10.500199623352872"><ele>4.0</ele><time>2026-04-25T05:48:55Z</time></trkpt><trkpt lat="43.302407838251135" lon="10.500104291372374"><ele>3.9999999999999996</ele><time>2026-04-25T05:49:01Z</time></trkpt><trkpt lat="43.30236653344758" lon="10.5000289773525"><ele>4.0</ele><time>2026-04-25T05:49:06Z</time></trkpt><trkpt lat="43.30232590522095" lon="10.499944736061845"><ele>4.0</ele><time>2026-04-25T05:49:12Z</time></trkpt><trkpt lat="43.30228698963517" lon="10.499872734142606"><ele>4.0</ele><time>2026-04-25T05:49:16Z</time></trkpt><trkpt lat="43.30223360064536" lon="10.499809389907435"><ele>3.9999999999999996</ele><time>2026-04-25T05:49:20Z</time></trkpt><trkpt lat="43.30218043938876" lon="10.499748269612589"><ele>4.0</ele><time>2026-04-25T05:49:24Z</time></trkpt><trkpt lat="43.302140240304475" lon="10.49966162640703"><ele>4.0</ele><time>2026-04-25T05:49:29Z</time></trkpt><trkpt lat="43.302100292516855" lon="10.499576184438792"><ele>3.9999999999999996</ele><time>2026-04-25T05:49:34Z</time></trkpt><trkpt lat="43.30206700200196" lon="10.499502236593074"><ele>4.0</ele><time>2026-04-25T05:49:38Z</time></trkpt><trkpt lat="43.302030553607864" lon="10.49941783746738"><ele>4.0</ele><time>2026-04-25T05:49:43Z</time></trkpt><trkpt lat="43.30200179551509" lon="10.499325087487597"><ele>4.0</ele><time>2026-04-25T05:49:48Z</time></trkpt><trkpt lat="43.3019588584007" lon="10.499240206197607"><ele>3.9999999999999996</ele><time>2026-04-25T05:49:53Z</time></trkpt><trkpt lat="43.301920162632456" lon="10.499167027190445"><ele>4.0</ele><time>2026-04-25T05:49:57Z</time></trkpt><trkpt lat="43.30187588868701" lon="10.499092950804817"><ele>4.0</ele><time>2026-04-25T05:50:02Z</time></trkpt><trkpt lat="43.30183674346818" lon="10.499021332168065"><ele>3.9999999999999996</ele><time>2026-04-25T05:50:06Z</time></trkpt><trkpt lat="43.301783221477706" lon="10.498951632947577"><ele>4.0</ele><time>2026-04-25T05:50:11Z</time></trkpt><trkpt lat="43.30176319861444" lon="10.49886665436393"><ele>4.0</ele><time>2026-04-25T05:50:16Z</time></trkpt><trkpt lat="43.30172994333289" lon="10.498788396635769"><ele>4.0</ele><time>2026-04-25T05:50:21Z</time></trkpt><trkpt lat="43.30168386068067" lon="10.498700992157032"><ele>3.9999999999999996</ele><time>2026-04-25T05:50:28Z</time></trkpt><trkpt lat="43.301654196772255" lon="10.498619144601646"><ele>4.0</ele><time>2026-04-25T05:50:32Z</time></trkpt><trkpt lat="43.30161112579518" lon="10.498538158051069"><ele>4.0</ele><time>2026-04-25T05:50:37Z</time></trkpt><trkpt lat="43.30157408373309" lon="10.498442905058612"><ele>3.9999999999999996</ele><time>2026-04-25T05:50:42Z</time></trkpt><trkpt lat="43.30153704768391" lon="10.498366328285577"><ele>4.0</ele><time>2026-04-25T05:50:46Z</time></trkpt><trkpt lat="43.30150724052745" lon="10.498284971318549"><ele>4.0</ele><time>2026-04-25T05:50:50Z</time></trkpt><trkpt lat="43.30146572432575" lon="10.498200770521583"><ele>4.0</ele><time>2026-04-25T05:50:55Z</time></trkpt><trkpt lat="43.30142708266582" lon="10.49811967588723"><ele>3.9999999999999996</ele><time>2026-04-25T05:51:00Z</time></trkpt><trkpt lat="43.301373626499156" lon="10.498056088476531"><ele>4.0</ele><time>2026-04-25T05:51:07Z</time></trkpt><trkpt lat="43.301333741048516" lon="10.497958895907335"><ele>4.0</ele><time>2026-04-25T05:51:12Z</time></trkpt><trkpt lat="43.30129548975406" lon="10.497880995494054"><ele>3.9999999999999996</ele><time>2026-04-25T05:51:16Z</time></trkpt><trkpt lat="43.30125937020562" lon="10.49780722580955"><ele>4.0</ele><time>2026-04-25T05:51:20Z</time></trkpt><trkpt lat="43.30122874391965" lon="10.497729284946837"><ele>4.0</ele><time>2026-04-25T05:51:24Z</time></trkpt><trkpt lat="43.30119298703426" lon="10.497655351068486"><ele>3.8571428571428568</ele><time>2026-04-25T05:51:29Z</time></trkpt><trkpt lat="43.30115166356145" lon="10.497562013193477"><ele>3.714285714285714</ele><time>2026-04-25T05:51:34Z</time></trkpt><trkpt lat="43.30111206301201" lon="10.497480135101164"><ele>3.571428571428571</ele><time>2026-04-25T05:51:39Z</time></trkpt><trkpt lat="43.30107568451871" lon="10.49740373817162"><ele>3.4285714285714284</ele><time>2026-04-25T05:51:44Z</time></trkpt><trkpt lat="43.301046351598856" lon="10.49731155026911"><ele>3.2857142857142856</ele><time>2026-04-25T05:51:49Z</time></trkpt><trkpt lat="43.30100975848219" lon="10.497227876724281"><ele>3.1428571428571423</ele><time>2026-04-25T05:51:54Z</time></trkpt><trkpt lat="43.300966368192405" lon="10.497152864745999"><ele>3.0</ele><time>2026-04-25T05:51:59Z</time></trkpt><trkpt lat="43.300923287986784" lon="10.497070879530202"><ele>2.9999999999999996</ele><time>2026-04-25T05:52:05Z</time></trkpt><trkpt lat="43.300904111024025" lon="10.496985806639538"><ele>3.0</ele><time>2026-04-25T05:52:09Z</time></trkpt><trkpt lat="43.30085079244699" lon="10.496914996265557"><ele>3.0</ele><time>2026-04-25T05:52:14Z</time></trkpt><trkpt lat="43.300815757307696" lon="10.496837218753399"><ele>3.0</ele><time>2026-04-25T05:52:18Z</time></trkpt><trkpt lat="43.30075315054929" lon="10.496787021070217"><ele>3.0</ele><time>2026-04-25T05:52:23Z</time></trkpt><trkpt lat="43.30068881216027" lon="10.496834881253887"><ele>2.9999999999999996</ele><time>2026-04-25T05:52:28Z</time></trkpt><trkpt lat="43.300625935408945" lon="10.496841327132298"><ele>3.0</ele><time>2026-04-25T05:52:33Z</time></trkpt><trkpt lat="43.30058940907205" lon="10.49676281895674"><ele>2.9999999999999996</ele><time>2026-04-25T05:52:38Z</time></trkpt><trkpt lat="43.300638329777044" lon="10.496694625403727"><ele>3.0</ele><time>2026-04-25T05:52:46Z</time></trkpt><trkpt lat="43.30068859893499" lon="10.496627216834199"><ele>3.0</ele><time>2026-04-25T05:52:51Z</time></trkpt><trkpt lat="43.300669874496855" lon="10.49654001400201"><ele>3.0</ele><time>2026-04-25T05:52:57Z</time></trkpt><trkpt lat="43.30062522090529" lon="10.496477229670182"><ele>3.0</ele><time>2026-04-25T05:53:02Z</time></trkpt><trkpt lat="43.300593226637595" lon="10.496388879340802"><ele>2.9999999999999996</ele><time>2026-04-25T05:53:07Z</time></trkpt><trkpt lat="43.30055279809108" lon="10.496308759607452"><ele>3.0</ele><time>2026-04-25T05:53:13Z</time></trkpt><trkpt lat="43.300507431872376" lon="10.496229681874727"><ele>2.9999999999999996</ele><time>2026-04-25T05:53:18Z</time></trkpt><trkpt lat="43.30045618225763" lon="10.496170369437573"><ele>3.0</ele><time>2026-04-25T05:53:21Z</time></trkpt><trkpt lat="43.300419501411646" lon="10.49609272058989"><ele>3.0</ele><time>2026-04-25T05:53:25Z</time></trkpt><trkpt lat="43.300378427428534" lon="10.496013401867886"><ele>3.0</ele><time>2026-04-25T05:53:30Z</time></trkpt><trkpt lat="43.30033435277549" lon="10.495930894289726"><ele>3.0</ele><time>2026-04-25T05:53:35Z</time></trkpt><trkpt lat="43.30029839414986" lon="10.495834876816492"><ele>2.9999999999999996</ele><time>2026-04-25T05:53:40Z</time></trkpt><trkpt lat="43.3002536513799" lon="10.495772819315272"><ele>3.0</ele><time>2026-04-25T05:53:44Z</time></trkpt><trkpt lat="43.30022367780484" lon="10.4956825308985"><ele>2.9999999999999996</ele><time>2026-04-25T05:53:50Z</time></trkpt><trkpt lat="43.30018322489472" lon="10.495599225640428"><ele>3.0</ele><time>2026-04-25T05:53:55Z</time></trkpt><trkpt lat="43.30013759048761" lon="10.495529834489226"><ele>3.0</ele><time>2026-04-25T05:54:00Z</time></trkpt><trkpt lat="43.30009388089135" lon="10.49546311423952"><ele>3.0</ele><time>2026-04-25T05:54:05Z</time></trkpt><trkpt lat="43.30006855784618" lon="10.49537372326088"><ele>3.0</ele><time>2026-04-25T05:54:09Z</time></trkpt><trkpt lat="43.3000375877665" lon="10.495270747000388"><ele>2.9999999999999996</ele><time>2026-04-25T05:54:14Z</time></trkpt><trkpt lat="43.300001175590566" lon="10.495194730194017"><ele>3.0</ele><time>2026-04-25T05:54:18Z</time></trkpt><trkpt lat="43.299954957791634" lon="10.495117730670039"><ele>2.9999999999999996</ele><time>2026-04-25T05:54:23Z</time></trkpt><trkpt lat="43.29991441225006" lon="10.495029183004206"><ele>3.0</ele><time>2026-04-25T05:54:29Z</time></trkpt><trkpt lat="43.299885435598284" lon="10.494951197193812"><ele>3.0</ele><time>2026-04-25T05:54:32Z</time></trkpt><trkpt lat="43.29984417674467" lon="10.494880565542488"><ele>3.0</ele><time>2026-04-25T05:54:36Z</time></trkpt><trkpt lat="43.29980485559085" lon="10.494791474628219"><ele>3.0</ele><time>2026-04-25T05:54:40Z</time></trkpt><trkpt lat="43.29977119593237" lon="10.494717842401343"><ele>2.9999999999999996</ele><time>2026-04-25T05:54:44Z</time></trkpt><trkpt lat="43.29972329975482" lon="10.494644213884687"><ele>3.0</ele><time>2026-04-25T05:54:49Z</time></trkpt><trkpt lat="43.29967898438326" lon="10.49456391812657"><ele>3.2857142857142856</ele><time>2026-04-25T05:54:54Z</time></trkpt><trkpt lat="43.29963115274389" lon="10.494488049837878"><ele>3.571428571428571</ele><time>2026-04-25T05:54:59Z</time></trkpt><trkpt lat="43.299595586894185" lon="10.49441521682313"><ele>3.8571428571428568</ele><time>2026-04-25T05:55:03Z</time></trkpt><trkpt lat="43.2995594747881" lon="10.494339661087615"><ele>4.142857142857142</ele><time>2026-04-25T05:55:07Z</time></trkpt><trkpt lat="43.299523879336334" lon="10.494252611436025"><ele>4.428571428571429</ele><time>2026-04-25T05:55:12Z</time></trkpt><trkpt lat="43.29949009393703" lon="10.494177163123577"><ele>4.714285714285714</ele><time>2026-04-25T05:55:17Z</time></trkpt><trkpt lat="43.29945442936775" lon="10.494094536161823"><ele>5.0</ele><time>2026-04-25T05:55:22Z</time></trkpt><trkpt lat="43.29942096961346" lon="10.49401532705884"><ele>5.0</ele><time>2026-04-25T05:55:27Z</time></trkpt><trkpt lat="43.299367440827034" lon="10.49396551115261"><ele>5.0</ele><time>2026-04-25T05:55:32Z</time></trkpt><trkpt lat="43.29933740467255" lon="10.493882645820413"><ele>5.0</ele><time>2026-04-25T05:55:41Z</time></trkpt><trkpt lat="43.29931819858144" lon="10.49379730199186"><ele>5.0</ele><time>2026-04-25T05:55:45Z</time></trkpt><trkpt lat="43.29929580540566" lon="10.493705503649217"><ele>5.0</ele><time>2026-04-25T05:55:48Z</time></trkpt><trkpt lat="43.299267820707264" lon="10.493608209437808"><ele>5.0</ele><time>2026-04-25T05:55:53Z</time></trkpt><trkpt lat="43.299231457103716" lon="10.493526783534124"><ele>5.0</ele><time>2026-04-25T05:55:58Z</time></trkpt><trkpt lat="43.29919693040334" lon="10.493446324279505"><ele>5.0</ele><time>2026-04-25T05:56:02Z</time></trkpt><trkpt lat="43.29915935130563" lon="10.49337591532821"><ele>5.0</ele><time>2026-04-25T05:56:06Z</time></trkpt><trkpt lat="43.29912510858576" lon="10.493275332111123"><ele>5.0</ele><time>2026-04-25T05:56:11Z</time></trkpt><trkpt lat="43.2990920720369" lon="10.493184936335359"><ele>5.0</ele><time>2026-04-25T05:56:16Z</time></trkpt><trkpt lat="43.29905946847626" lon="10.493103368547235"><ele>5.0</ele><time>2026-04-25T05:56:20Z</time></trkpt><trkpt lat="43.299027724260135" lon="10.493016090284373"><ele>5.0</ele><time>2026-04-25T05:56:25Z</time></trkpt><trkpt lat="43.29901335551355" lon="10.49291254134699"><ele>5.0</ele><time>2026-04-25T05:56:30Z</time></trkpt><trkpt lat="43.29900540418942" lon="10.492804776577312"><ele>4.714285714285714</ele><time>2026-04-25T05:56:35Z</time></trkpt><trkpt lat="43.29899864813592" lon="10.492717514469032"><ele>4.428571428571429</ele><time>2026-04-25T05:56:39Z</time></trkpt><trkpt lat="43.299007719396414" lon="10.49262698015518"><ele>4.142857142857142</ele><time>2026-04-25T05:56:44Z</time></trkpt><trkpt lat="43.29904332872473" lon="10.492546148739823"><ele>3.8571428571428568</ele><time>2026-04-25T05:56:49Z</time></trkpt><trkpt lat="43.29908162062129" lon="10.492467257162877"><ele>3.571428571428571</ele><time>2026-04-25T05:56:54Z</time></trkpt><trkpt lat="43.29913005496106" lon="10.492394247341386"><ele>3.2857142857142856</ele><time>2026-04-25T05:56:59Z</time></trkpt><trkpt lat="43.29917344112567" lon="10.492326141916969"><ele>3.0</ele><time>2026-04-25T05:57:03Z</time></trkpt><trkpt lat="43.299223061015006" lon="10.492259583307597"><ele>2.9999999999999996</ele><time>2026-04-25T05:57:07Z</time></trkpt><trkpt lat="43.29927869458628" lon="10.492190341942955"><ele>3.0</ele><time>2026-04-25T05:57:13Z</time></trkpt><trkpt lat="43.29933461182099" lon="10.49211513481284"><ele>3.0</ele><time>2026-04-25T05:57:18Z</time></trkpt><trkpt lat="43.29938546256792" lon="10.492056740835409"><ele>3.0</ele><time>2026-04-25T05:57:23Z</time></trkpt><trkpt lat="43.299444816449075" lon="10.491981441681556"><ele>3.0</ele><time>2026-04-25T05:57:28Z</time></trkpt><trkpt lat="43.2994927842193" lon="10.491908249049294"><ele>2.9999999999999996</ele><time>2026-04-25T05:57:32Z</time></trkpt><trkpt lat="43.29955126628753" lon="10.491841934856788"><ele>3.0</ele><time>2026-04-25T05:57:37Z</time></trkpt><trkpt lat="43.29960562177314" lon="10.491777694961975"><ele>2.8571428571428568</ele><time>2026-04-25T05:57:42Z</time></trkpt><trkpt lat="43.29966557719844" lon="10.491714460496551"><ele>2.7142857142857144</ele><time>2026-04-25T05:57:47Z</time></trkpt><trkpt lat="43.29972153616023" lon="10.491643938435551"><ele>2.571428571428571</ele><time>2026-04-25T05:57:52Z</time></trkpt><trkpt lat="43.29976626959904" lon="10.491579323485363"><ele>2.4285714285714284</ele><time>2026-04-25T05:57:57Z</time></trkpt><trkpt lat="43.29982875603148" lon="10.491521200103781"><ele>2.2857142857142856</ele><time>2026-04-25T05:58:03Z</time></trkpt><trkpt lat="43.29988806434838" lon="10.491454558015553"><ele>2.142857142857143</ele><time>2026-04-25T05:58:08Z</time></trkpt><trkpt lat="43.299938828533556" lon="10.491379090019503"><ele>2.0</ele><time>2026-04-25T05:58:13Z</time></trkpt><trkpt lat="43.29998966203443" lon="10.491299252416292"><ele>2.0</ele><time>2026-04-25T05:58:18Z</time></trkpt><trkpt lat="43.30003952940983" lon="10.491237545568408"><ele>1.9999999999999998</ele><time>2026-04-25T05:58:22Z</time></trkpt><trkpt lat="43.30009032755408" lon="10.491183943567062"><ele>2.0</ele><time>2026-04-25T05:58:26Z</time></trkpt><trkpt lat="43.30013781955062" lon="10.491105284938012"><ele>2.0</ele><time>2026-04-25T05:58:31Z</time></trkpt><trkpt lat="43.30020378620524" lon="10.491070516198153"><ele>1.9999999999999998</ele><time>2026-04-25T05:58:36Z</time></trkpt><trkpt lat="43.300263018585326" lon="10.491104939420866"><ele>2.0</ele><time>2026-04-25T05:58:41Z</time></trkpt><trkpt lat="43.3003265230329" lon="10.491172230776128"><ele>2.0</ele><time>2026-04-25T05:58:47Z</time></trkpt><trkpt lat="43.30038026706934" lon="10.491228175389793"><ele>2.0</ele><time>2026-04-25T05:58:52Z</time></trkpt><trkpt lat="43.30044387882286" lon="10.491250701584642"><ele>1.9999999999999998</ele><time>2026-04-25T05:58:56Z</time></trkpt><trkpt lat="43.30051564430767" lon="10.491251440700948"><ele>2.0</ele><time>2026-04-25T05:59:01Z</time></trkpt><trkpt lat="43.30058536997019" lon="10.491207755455536"><ele>2.0</ele><time>2026-04-25T05:59:06Z</time></trkpt><trkpt lat="43.30065229168568" lon="10.491155510009266"><ele>1.9999999999999998</ele><time>2026-04-25T05:59:11Z</time></trkpt><trkpt lat="43.30070563936902" lon="10.491096349504174"><ele>2.0</ele><time>2026-04-25T05:59:16Z</time></trkpt><trkpt lat="43.30076998711565" lon="10.491048742652268"><ele>2.0</ele><time>2026-04-25T05:59:21Z</time></trkpt><trkpt lat="43.30083022786995" lon="10.491005923653944"><ele>2.1666666666666665</ele><time>2026-04-25T05:59:26Z</time></trkpt><trkpt lat="43.300896653631206" lon="10.490958183196014"><ele>2.333333333333333</ele><time>2026-04-25T05:59:31Z</time></trkpt><trkpt lat="43.300971723203915" lon="10.49096067755042"><ele>2.5</ele><time>2026-04-25T05:59:36Z</time></trkpt><trkpt lat="43.3010363699945" lon="10.49099664473852"><ele>2.6666666666666665</ele><time>2026-04-25T05:59:41Z</time></trkpt><trkpt lat="43.301098294887595" lon="10.491064874064207"><ele>2.8333333333333335</ele><time>2026-04-25T05:59:47Z</time></trkpt><trkpt lat="43.30115459680804" lon="10.491145125041548"><ele>3.0</ele><time>2026-04-25T05:59:52Z</time></trkpt><trkpt lat="43.30119886576698" lon="10.491227955333402"><ele>2.9999999999999996</ele><time>2026-04-25T05:59:57Z</time></trkpt><trkpt lat="43.30123491830866" lon="10.491316045083012"><ele>3.0</ele><time>2026-04-25T06:00:02Z</time></trkpt><trkpt lat="43.30127545662471" lon="10.491400052698092"><ele>3.0</ele><time>2026-04-25T06:00:07Z</time></trkpt><trkpt lat="43.30131739905618" lon="10.491485040037933"><ele>3.0</ele><time>2026-04-25T06:00:12Z</time></trkpt><trkpt lat="43.30136035878964" lon="10.49157017497737"><ele>3.0</ele><time>2026-04-25T06:00:17Z</time></trkpt><trkpt lat="43.30139534743703" lon="10.491656944715128"><ele>2.9999999999999996</ele><time>2026-04-25T06:00:22Z</time></trkpt><trkpt lat="43.30143385856666" lon="10.491736808637217"><ele>3.0</ele><time>2026-04-25T06:00:27Z</time></trkpt><trkpt lat="43.301471069837426" lon="10.491818985343073"><ele>2.9999999999999996</ele><time>2026-04-25T06:00:32Z</time></trkpt><trkpt lat="43.30147055996835" lon="10.491912803256536"><ele>3.0</ele><time>2026-04-25T06:00:37Z</time></trkpt><trkpt lat="43.30148497565552" lon="10.492010564425918"><ele>3.0</ele><time>2026-04-25T06:00:43Z</time></trkpt><trkpt lat="43.301539490944194" lon="10.492078360307772"><ele>3.0</ele><time>2026-04-25T06:00:48Z</time></trkpt><trkpt lat="43.3015900818428" lon="10.492138004586275"><ele>3.0</ele><time>2026-04-25T06:00:52Z</time></trkpt><trkpt lat="43.30163531442045" lon="10.492209193395595"><ele>2.9999999999999996</ele><time>2026-04-25T06:00:57Z</time></trkpt><trkpt lat="43.30168734229483" lon="10.492287594170051"><ele>3.0</ele><time>2026-04-25T06:01:02Z</time></trkpt><trkpt lat="43.30172573074678" lon="10.492359774506237"><ele>2.9999999999999996</ele><time>2026-04-25T06:01:07Z</time></trkpt><trkpt lat="43.30177962994603" lon="10.49244704798677"><ele>3.0</ele><time>2026-04-25T06:01:12Z</time></trkpt><trkpt lat="43.30183529234484" lon="10.492513608056118"><ele>3.0</ele><time>2026-04-25T06:01:17Z</time></trkpt><trkpt lat="43.30187730798417" lon="10.492588116246095"><ele>3.0</ele><time>2026-04-25T06:01:22Z</time></trkpt><trkpt lat="43.301919758301146" lon="10.49266239929197"><ele>3.0</ele><time>2026-04-25T06:01:27Z</time></trkpt><trkpt lat="43.30196000834082" lon="10.49273760399905"><ele>2.9999999999999996</ele><time>2026-04-25T06:01:32Z</time></trkpt><trkpt lat="43.301988359610434" lon="10.492828795960994"><ele>3.0</ele><time>2026-04-25T06:01:37Z</time></trkpt><trkpt lat="43.30202115848328" lon="10.492909380111966"><ele>2.8571428571428568</ele><time>2026-04-25T06:01:42Z</time></trkpt><trkpt lat="43.3020621033776" lon="10.492994809926842"><ele>2.7142857142857144</ele><time>2026-04-25T06:01:47Z</time></trkpt><trkpt lat="43.30210089126659" lon="10.493078773581122"><ele>2.571428571428571</ele><time>2026-04-25T06:01:52Z</time></trkpt><trkpt lat="43.30214211503682" lon="10.493155651032879"><ele>2.4285714285714284</ele><time>2026-04-25T06:01:57Z</time></trkpt><trkpt lat="43.30218459038645" lon="10.493243638158345"><ele>2.2857142857142856</ele><time>2026-04-25T06:02:02Z</time></trkpt><trkpt lat="43.302210506768255" lon="10.4933287882236"><ele>2.142857142857143</ele><time>2026-04-25T06:02:07Z</time></trkpt><trkpt lat="43.30225343643976" lon="10.493403662806594"><ele>2.0</ele><time>2026-04-25T06:02:12Z</time></trkpt><trkpt lat="43.302289505330684" lon="10.493492522202384"><ele>2.0</ele><time>2026-04-25T06:02:17Z</time></trkpt><trkpt lat="43.30232742981146" lon="10.493581064550952"><ele>1.9999999999999998</ele><time>2026-04-25T06:02:22Z</time></trkpt><trkpt lat="43.30236604268652" lon="10.49366359916324"><ele>2.0</ele><time>2026-04-25T06:02:27Z</time></trkpt><trkpt lat="43.302427480833856" lon="10.493693626725966"><ele>2.0</ele><time>2026-04-25T06:02:31Z</time></trkpt><trkpt lat="43.30249163998024" lon="10.493736013910164"><ele>1.9999999999999998</ele><time>2026-04-25T06:02:36Z</time></trkpt><trkpt lat="43.30254536413135" lon="10.4937886368422"><ele>2.0</ele><time>2026-04-25T06:02:41Z</time></trkpt><trkpt lat="43.30258310719129" lon="10.493867150943448"><ele>2.0</ele><time>2026-04-25T06:02:47Z</time></trkpt><trkpt lat="43.30262850813631" lon="10.493940505321238"><ele>2.0</ele><time>2026-04-25T06:02:52Z</time></trkpt><trkpt lat="43.30266324810927" lon="10.49401810507559"><ele>1.9999999999999998</ele><time>2026-04-25T06:02:56Z</time></trkpt><trkpt lat="43.30270405459609" lon="10.494105174480142"><ele>2.0</ele><time>2026-04-25T06:03:01Z</time></trkpt><trkpt lat="43.30277208715482" lon="10.4941334445477"><ele>2.0</ele><time>2026-04-25T06:03:06Z</time></trkpt><trkpt lat="43.30283743566606" lon="10.494144550238333"><ele>1.9999999999999998</ele><time>2026-04-25T06:03:11Z</time></trkpt><trkpt lat="43.30289862907126" lon="10.49417571677253"><ele>2.0</ele><time>2026-04-25T06:03:16Z</time></trkpt><trkpt lat="43.302964456056536" lon="10.494126455023151"><ele>2.0</ele><time>2026-04-25T06:03:21Z</time></trkpt><trkpt lat="43.30302551675674" lon="10.494078295908249"><ele>2.0</ele><time>2026-04-25T06:03:26Z</time></trkpt><trkpt lat="43.30308547781608" lon="10.494024688377724"><ele>1.9999999999999998</ele><time>2026-04-25T06:03:31Z</time></trkpt><trkpt lat="43.30314259029087" lon="10.493982971235308"><ele>2.0</ele><time>2026-04-25T06:03:36Z</time></trkpt><trkpt lat="43.30320318433817" lon="10.493933675551617"><ele>2.0</ele><time>2026-04-25T06:03:41Z</time></trkpt><trkpt lat="43.303259635571045" lon="10.493882841165435"><ele>1.9999999999999998</ele><time>2026-04-25T06:03:46Z</time></trkpt><trkpt lat="43.30331594442694" lon="10.493827027165517"><ele>2.0</ele><time>2026-04-25T06:03:51Z</time></trkpt><trkpt lat="43.30336546713597" lon="10.493772481455078"><ele>2.0</ele><time>2026-04-25T06:03:57Z</time></trkpt><trkpt lat="43.303413485233484" lon="10.493716220954862"><ele>1.857142857142857</ele><time>2026-04-25T06:04:02Z</time></trkpt><trkpt lat="43.30347691323859" lon="10.49366076864567"><ele>1.714285714285714</ele><time>2026-04-25T06:04:07Z</time></trkpt><trkpt lat="43.30353685581687" lon="10.493605256145822"><ele>1.5714285714285714</ele><time>2026-04-25T06:04:12Z</time></trkpt><trkpt lat="43.30360078155117" lon="10.493553873043428"><ele>1.4285714285714284</ele><time>2026-04-25T06:04:17Z</time></trkpt><trkpt lat="43.303662533925696" lon="10.493502005862089"><ele>1.2857142857142856</ele><time>2026-04-25T06:04:22Z</time></trkpt><trkpt lat="43.30372234691063" lon="10.493449185702445"><ele>1.1428571428571428</ele><time>2026-04-25T06:04:27Z</time></trkpt><trkpt lat="43.30379039491921" lon="10.493397347129129"><ele>1.0</ele><time>2026-04-25T06:04:32Z</time></trkpt><trkpt lat="43.30384778675662" lon="10.49334816630204"><ele>1.0</ele><time>2026-04-25T06:04:37Z</time></trkpt><trkpt lat="43.3039021216254" lon="10.493302549367876"><ele>0.9999999999999999</ele><time>2026-04-25T06:04:41Z</time></trkpt><trkpt lat="43.30396110807763" lon="10.493264872752516"><ele>1.0</ele><time>2026-04-25T06:04:46Z</time></trkpt><trkpt lat="43.30401906600454" lon="10.493216878993058"><ele>1.0</ele><time>2026-04-25T06:04:51Z</time></trkpt><trkpt lat="43.304083037378454" lon="10.493167207970126"><ele>0.9999999999999999</ele><time>2026-04-25T06:04:56Z</time></trkpt><trkpt lat="43.30414291203944" lon="10.493116766410733"><ele>1.0</ele><time>2026-04-25T06:05:01Z</time></trkpt><trkpt lat="43.30419862019944" lon="10.493063279440861"><ele>1.0</ele><time>2026-04-25T06:05:06Z</time></trkpt><trkpt lat="43.30426398610817" lon="10.493016220986325"><ele>0.8571428571428571</ele><time>2026-04-25T06:05:11Z</time></trkpt><trkpt lat="43.30432178024847" lon="10.492967418867398"><ele>0.7142857142857142</ele><time>2026-04-25T06:05:16Z</time></trkpt><trkpt lat="43.3043794865629" lon="10.49291341206182"><ele>0.5714285714285714</ele><time>2026-04-25T06:05:21Z</time></trkpt><trkpt lat="43.30444031415465" lon="10.492859024527501"><ele>0.42857142857142855</ele><time>2026-04-25T06:05:26Z</time></trkpt><trkpt lat="43.30450114708322" lon="10.492805460428977"><ele>0.2857142857142857</ele><time>2026-04-25T06:05:31Z</time></trkpt><trkpt lat="43.3045642402579" lon="10.492756242212025"><ele>0.14285714285714285</ele><time>2026-04-25T06:05:36Z</time></trkpt><trkpt lat="43.30462978583876" lon="10.492726037061763"><ele>0.0</ele><time>2026-04-25T06:05:40Z</time></trkpt><trkpt lat="43.304691090174515" lon="10.492685034884417"><ele>0.0</ele><time>2026-04-25T06:05:45Z</time></trkpt><trkpt lat="43.30475248075037" lon="10.492629571277936"><ele>0.0</ele><time>2026-04-25T06:05:50Z</time></trkpt><trkpt lat="43.304811873801775" lon="10.492574564011424"><ele>0.0</ele><time>2026-04-25T06:05:55Z</time></trkpt><trkpt lat="43.30487103267249" lon="10.49252023048185"><ele>0.0</ele><time>2026-04-25T06:06:00Z</time></trkpt><trkpt lat="43.304938751092266" lon="10.492469935955139"><ele>0.0</ele><time>2026-04-25T06:06:05Z</time></trkpt><trkpt lat="43.30499193816462" lon="10.492417912463695"><ele>0.0</ele><time>2026-04-25T06:06:09Z</time></trkpt><trkpt lat="43.30504996488544" lon="10.49238063167941"><ele>0.0</ele><time>2026-04-25T06:06:14Z</time></trkpt><trkpt lat="43.305107735867196" lon="10.492322862348374"><ele>0.0</ele><time>2026-04-25T06:06:19Z</time></trkpt><trkpt lat="43.30517126426915" lon="10.492270327968006"><ele>0.0</ele><time>2026-04-25T06:06:24Z</time></trkpt><trkpt lat="43.305226660621585" lon="10.492215531761637"><ele>0.0</ele><time>2026-04-25T06:06:29Z</time></trkpt><trkpt lat="43.30528497871951" lon="10.492161481457916"><ele>0.0</ele><time>2026-04-25T06:06:34Z</time></trkpt><trkpt lat="43.30534462203131" lon="10.492102966250139"><ele>0.0</ele><time>2026-04-25T06:06:39Z</time></trkpt><trkpt lat="43.30540178845065" lon="10.492047164699061"><ele>0.0</ele><time>2026-04-25T06:06:44Z</time></trkpt><trkpt lat="43.30546144977918" lon="10.491991387543274"><ele>0.0</ele><time>2026-04-25T06:06:49Z</time></trkpt><trkpt lat="43.305526394828604" lon="10.491929175580108"><ele>0.14285714285714285</ele><time>2026-04-25T06:06:54Z</time></trkpt><trkpt lat="43.30558566329658" lon="10.491880286918999"><ele>0.2857142857142857</ele><time>2026-04-25T06:06:59Z</time></trkpt><trkpt lat="43.30564501504893" lon="10.491832632084948"><ele>0.42857142857142855</ele><time>2026-04-25T06:07:04Z</time></trkpt><trkpt lat="43.30569890793389" lon="10.491777188051406"><ele>0.5714285714285714</ele><time>2026-04-25T06:07:09Z</time></trkpt><trkpt lat="43.3057548245069" lon="10.491724639304685"><ele>0.7142857142857142</ele><time>2026-04-25T06:07:14Z</time></trkpt><trkpt lat="43.30581344911346" lon="10.491677631426853"><ele>0.8571428571428571</ele><time>2026-04-25T06:07:19Z</time></trkpt><trkpt lat="43.305874212286334" lon="10.491618495766009"><ele>1.0</ele><time>2026-04-25T06:07:24Z</time></trkpt><trkpt lat="43.30593438319266" lon="10.491561944548316"><ele>1.0</ele><time>2026-04-25T06:07:29Z</time></trkpt><trkpt lat="43.305996295424926" lon="10.491503860148882"><ele>0.9999999999999999</ele><time>2026-04-25T06:07:34Z</time></trkpt><trkpt lat="43.30606189686604" lon="10.491445107707971"><ele>1.0</ele><time>2026-04-25T06:07:39Z</time></trkpt><trkpt lat="43.30612450907674" lon="10.49139476857943"><ele>1.0</ele><time>2026-04-25T06:07:44Z</time></trkpt><trkpt lat="43.3061842940426" lon="10.491342170680436"><ele>0.9999999999999999</ele><time>2026-04-25T06:07:49Z</time></trkpt><trkpt lat="43.30624550304345" lon="10.491287769245776"><ele>1.0</ele><time>2026-04-25T06:07:54Z</time></trkpt><trkpt lat="43.30630702498926" lon="10.491234740884163"><ele>1.0</ele><time>2026-04-25T06:07:59Z</time></trkpt><trkpt lat="43.30636718788059" lon="10.491182316584196"><ele>1.2857142857142856</ele><time>2026-04-25T06:08:04Z</time></trkpt><trkpt lat="43.30642762697856" lon="10.491122425322846"><ele>1.5714285714285712</ele><time>2026-04-25T06:08:09Z</time></trkpt><trkpt lat="43.306490841791636" lon="10.491061994116432"><ele>1.857142857142857</ele><time>2026-04-25T06:08:14Z</time></trkpt><trkpt lat="43.30654972036305" lon="10.49101069337763"><ele>2.142857142857143</ele><time>2026-04-25T06:08:19Z</time></trkpt><trkpt lat="43.306613767090525" lon="10.49095116905983"><ele>2.4285714285714284</ele><time>2026-04-25T06:08:24Z</time></trkpt><trkpt lat="43.30667758202166" lon="10.490899892755467"><ele>2.714285714285714</ele><time>2026-04-25T06:08:29Z</time></trkpt><trkpt lat="43.30673651062306" lon="10.490849144712007"><ele>3.0</ele><time>2026-04-25T06:08:34Z</time></trkpt><trkpt lat="43.30678924414305" lon="10.490801544120039"><ele>2.9999999999999996</ele><time>2026-04-25T06:08:38Z</time></trkpt><trkpt lat="43.30685010330732" lon="10.490741402865266"><ele>3.0</ele><time>2026-04-25T06:08:43Z</time></trkpt><trkpt lat="43.306903553880666" lon="10.490693998447513"><ele>3.0</ele><time>2026-04-25T06:08:47Z</time></trkpt><trkpt lat="43.30696434486333" lon="10.490637956898212"><ele>3.0</ele><time>2026-04-25T06:08:52Z</time></trkpt><trkpt lat="43.307026963088404" lon="10.490584128902949"><ele>3.0</ele><time>2026-04-25T06:08:57Z</time></trkpt><trkpt lat="43.307086300137655" lon="10.490529533487303"><ele>2.9999999999999996</ele><time>2026-04-25T06:09:02Z</time></trkpt><trkpt lat="43.307148463534524" lon="10.490481240718173"><ele>3.0</ele><time>2026-04-25T06:09:07Z</time></trkpt><trkpt lat="43.3072081851919" lon="10.490425478547083"><ele>3.1428571428571423</ele><time>2026-04-25T06:09:12Z</time></trkpt><trkpt lat="43.307271149792584" lon="10.490378466516209"><ele>3.2857142857142856</ele><time>2026-04-25T06:09:17Z</time></trkpt><trkpt lat="43.307330007752" lon="10.49032688040962"><ele>3.4285714285714284</ele><time>2026-04-25T06:09:22Z</time></trkpt><trkpt lat="43.307384786573394" lon="10.49028038011247"><ele>3.571428571428571</ele><time>2026-04-25T06:09:26Z</time></trkpt><trkpt lat="43.307441603841454" lon="10.490239119355975"><ele>3.714285714285714</ele><time>2026-04-25T06:09:30Z</time></trkpt><trkpt lat="43.30750035892778" lon="10.490182927386225"><ele>3.8571428571428568</ele><time>2026-04-25T06:09:35Z</time></trkpt><trkpt lat="43.307555920933716" lon="10.490116642523295"><ele>4.0</ele><time>2026-04-25T06:09:40Z</time></trkpt><trkpt lat="43.30762275920596" lon="10.490063477792336"><ele>4.0</ele><time>2026-04-25T06:09:45Z</time></trkpt><trkpt lat="43.30768410621905" lon="10.490013097062683"><ele>3.9999999999999996</ele><time>2026-04-25T06:09:50Z</time></trkpt><trkpt lat="43.30773979202571" lon="10.489971740576465"><ele>4.0</ele><time>2026-04-25T06:09:54Z</time></trkpt><trkpt lat="43.30779760783603" lon="10.489910555704311"><ele>4.0</ele><time>2026-04-25T06:09:59Z</time></trkpt><trkpt lat="43.30786231465664" lon="10.489855868145728"><ele>3.9999999999999996</ele><time>2026-04-25T06:10:04Z</time></trkpt><trkpt lat="43.30792372454747" lon="10.489803975949172"><ele>4.0</ele><time>2026-04-25T06:10:09Z</time></trkpt><trkpt lat="43.30798163553344" lon="10.489739907405022"><ele>4.0</ele><time>2026-04-25T06:10:14Z</time></trkpt><trkpt lat="43.30803583424202" lon="10.489695766245942"><ele>3.8571428571428568</ele><time>2026-04-25T06:10:18Z</time></trkpt><trkpt lat="43.30809686341257" lon="10.489645226552074"><ele>3.714285714285714</ele><time>2026-04-25T06:10:23Z</time></trkpt><trkpt lat="43.308158901486024" lon="10.489587543310597"><ele>3.571428571428571</ele><time>2026-04-25T06:10:28Z</time></trkpt><trkpt lat="43.30821909243584" lon="10.489535765234441"><ele>3.4285714285714284</ele><time>2026-04-25T06:10:33Z</time></trkpt><trkpt lat="43.30828579263411" lon="10.489480031391372"><ele>3.2857142857142856</ele><time>2026-04-25T06:10:38Z</time></trkpt><trkpt lat="43.308338152435645" lon="10.489430315141062"><ele>3.1428571428571423</ele><time>2026-04-25T06:10:42Z</time></trkpt><trkpt lat="43.30840653144223" lon="10.48938271107281"><ele>3.0</ele><time>2026-04-25T06:10:47Z</time></trkpt><trkpt lat="43.308465040988374" lon="10.48933345289499"><ele>2.714285714285714</ele><time>2026-04-25T06:10:52Z</time></trkpt><trkpt lat="43.308525052032245" lon="10.489276606409387"><ele>2.4285714285714284</ele><time>2026-04-25T06:10:57Z</time></trkpt><trkpt lat="43.30858328332812" lon="10.4892181484972"><ele>2.142857142857143</ele><time>2026-04-25T06:11:02Z</time></trkpt><trkpt lat="43.30864535633961" lon="10.489160109605212"><ele>1.857142857142857</ele><time>2026-04-25T06:11:07Z</time></trkpt><trkpt lat="43.30870506220387" lon="10.489106483768465"><ele>1.5714285714285712</ele><time>2026-04-25T06:11:12Z</time></trkpt><trkpt lat="43.308766550595195" lon="10.48904389435153"><ele>1.2857142857142856</ele><time>2026-04-25T06:11:17Z</time></trkpt><trkpt lat="43.308831627188304" lon="10.488988626375923"><ele>1.0</ele><time>2026-04-25T06:11:22Z</time></trkpt><trkpt lat="43.30889582547273" lon="10.488928023587157"><ele>1.0</ele><time>2026-04-25T06:11:27Z</time></trkpt><trkpt lat="43.30896260538242" lon="10.488863739916674"><ele>0.9999999999999999</ele><time>2026-04-25T06:11:32Z</time></trkpt><trkpt lat="43.309020894666844" lon="10.488807594006055"><ele>1.0</ele><time>2026-04-25T06:11:37Z</time></trkpt><trkpt lat="43.30907795028796" lon="10.488757501430658"><ele>1.0</ele><time>2026-04-25T06:11:42Z</time></trkpt><trkpt lat="43.30914140600327" lon="10.488699353451558"><ele>0.9999999999999999</ele><time>2026-04-25T06:11:47Z</time></trkpt><trkpt lat="43.30919053262811" lon="10.4886431962725"><ele>1.0</ele><time>2026-04-25T06:11:51Z</time></trkpt><trkpt lat="43.30925878316764" lon="10.488588018444068"><ele>1.0</ele><time>2026-04-25T06:11:56Z</time></trkpt><trkpt lat="43.309316212303386" lon="10.48853738660761"><ele>0.8571428571428571</ele><time>2026-04-25T06:12:01Z</time></trkpt><trkpt lat="43.30938096010357" lon="10.488487867158549"><ele>0.7142857142857142</ele><time>2026-04-25T06:12:06Z</time></trkpt><trkpt lat="43.30943697128375" lon="10.488447192721914"><ele>0.5714285714285714</ele><time>2026-04-25T06:12:10Z</time></trkpt><trkpt lat="43.3094982976741" lon="10.488387679279002"><ele>0.42857142857142855</ele><time>2026-04-25T06:12:15Z</time></trkpt><trkpt lat="43.30955739080328" lon="10.488335394500206"><ele>0.2857142857142857</ele><time>2026-04-25T06:12:20Z</time></trkpt><trkpt lat="43.309617339400795" lon="10.488278291153001"><ele>0.14285714285714285</ele><time>2026-04-25T06:12:25Z</time></trkpt><trkpt lat="43.30967832138873" lon="10.4882158207223"><ele>0.0</ele><time>2026-04-25T06:12:30Z</time></trkpt><trkpt lat="43.30974570972332" lon="10.488169812466525"><ele>0.14285714285714285</ele><time>2026-04-25T06:12:35Z</time></trkpt><trkpt lat="43.309811041688036" lon="10.48811512739567"><ele>0.2857142857142857</ele><time>2026-04-25T06:12:40Z</time></trkpt><trkpt lat="43.309870647529806" lon="10.488060832026179"><ele>0.42857142857142855</ele><time>2026-04-25T06:12:45Z</time></trkpt><trkpt lat="43.309935259046" lon="10.487997046728548"><ele>0.5714285714285714</ele><time>2026-04-25T06:12:50Z</time></trkpt><trkpt lat="43.309993646799384" lon="10.4879504543744"><ele>0.7142857142857142</ele><time>2026-04-25T06:12:55Z</time></trkpt><trkpt lat="43.310054485512595" lon="10.487891117132937"><ele>0.8571428571428571</ele><time>2026-04-25T06:13:00Z</time></trkpt><trkpt lat="43.31010689606114" lon="10.487842616229154"><ele>1.0</ele><time>2026-04-25T06:13:04Z</time></trkpt><trkpt lat="43.31017045522393" lon="10.487778070330437"><ele>1.0</ele><time>2026-04-25T06:13:09Z</time></trkpt><trkpt lat="43.31022910325169" lon="10.487718291112895"><ele>0.9999999999999999</ele><time>2026-04-25T06:13:14Z</time></trkpt><trkpt lat="43.310286200597375" lon="10.487681802493416"><ele>1.0</ele><time>2026-04-25T06:13:18Z</time></trkpt><trkpt lat="43.31034842005555" lon="10.487629265253988"><ele>1.0</ele><time>2026-04-25T06:13:23Z</time></trkpt><trkpt lat="43.31041919490548" lon="10.487577849725865"><ele>0.9999999999999999</ele><time>2026-04-25T06:13:28Z</time></trkpt><trkpt lat="43.31047778539074" lon="10.48752654140714"><ele>1.0</ele><time>2026-04-25T06:13:33Z</time></trkpt><trkpt lat="43.31054259735933" lon="10.487471406827728"><ele>1.0</ele><time>2026-04-25T06:13:38Z</time></trkpt><trkpt lat="43.31059667608077" lon="10.487422044875634"><ele>0.8571428571428571</ele><time>2026-04-25T06:13:42Z</time></trkpt><trkpt lat="43.310662016002844" lon="10.487364232170341"><ele>0.7142857142857142</ele><time>2026-04-25T06:13:47Z</time></trkpt><trkpt lat="43.31072360602024" lon="10.487309633849577"><ele>0.5714285714285714</ele><time>2026-04-25T06:13:52Z</time></trkpt><trkpt lat="43.31078540666934" lon="10.487251364705378"><ele>0.42857142857142855</ele><time>2026-04-25T06:13:57Z</time></trkpt><trkpt lat="43.310846510974116" lon="10.487200544928038"><ele>0.2857142857142857</ele><time>2026-04-25T06:14:02Z</time></trkpt><trkpt lat="43.31090399634134" lon="10.48716447418821"><ele>0.14285714285714285</ele><time>2026-04-25T06:14:06Z</time></trkpt><trkpt lat="43.31097862786373" lon="10.487135062074115"><ele>0.0</ele><time>2026-04-25T06:14:11Z</time></trkpt><trkpt lat="43.311053084779154" lon="10.487106308615257"><ele>0.0</ele><time>2026-04-25T06:14:16Z</time></trkpt><trkpt lat="43.31112184051269" lon="10.487079656821017"><ele>0.0</ele><time>2026-04-25T06:14:21Z</time></trkpt><trkpt lat="43.31119341973658" lon="10.487057272152294"><ele>0.0</ele><time>2026-04-25T06:14:26Z</time></trkpt><trkpt lat="43.31126172651564" lon="10.487040610961671"><ele>0.0</ele><time>2026-04-25T06:14:31Z</time></trkpt><trkpt lat="43.31132617681076" lon="10.487045642813511"><ele>0.0</ele><time>2026-04-25T06:14:36Z</time></trkpt><trkpt lat="43.31139729043571" lon="10.487075317391893"><ele>0.0</ele><time>2026-04-25T06:14:41Z</time></trkpt><trkpt lat="43.31146583440809" lon="10.487114423197927"><ele>0.0</ele><time>2026-04-25T06:14:46Z</time></trkpt><trkpt lat="43.3115192440713" lon="10.487190185253523"><ele>0.0</ele><time>2026-04-25T06:14:51Z</time></trkpt><trkpt lat="43.31155992677652" lon="10.487260297912762"><ele>0.0</ele><time>2026-04-25T06:14:55Z</time></trkpt><trkpt lat="43.31160978552921" lon="10.487333339889043"><ele>0.0</ele><time>2026-04-25T06:15:00Z</time></trkpt><trkpt lat="43.3116566874555" lon="10.487411615845843"><ele>0.0</ele><time>2026-04-25T06:15:05Z</time></trkpt><trkpt lat="43.311702274234804" lon="10.487489996957262"><ele>0.0</ele><time>2026-04-25T06:15:10Z</time></trkpt><trkpt lat="43.31174413369447" lon="10.487568729384058"><ele>0.0</ele><time>2026-04-25T06:15:15Z</time></trkpt><trkpt lat="43.31177900726304" lon="10.487641108825555"><ele>0.0</ele><time>2026-04-25T06:15:19Z</time></trkpt><trkpt lat="43.31183455981636" lon="10.48771252525977"><ele>0.0</ele><time>2026-04-25T06:15:24Z</time></trkpt><trkpt lat="43.311879099081104" lon="10.487775359160244"><ele>0.0</ele><time>2026-04-25T06:15:28Z</time></trkpt><trkpt lat="43.31192575021672" lon="10.487859308797267"><ele>0.0</ele><time>2026-04-25T06:15:33Z</time></trkpt><trkpt lat="43.31196861385038" lon="10.48792470529591"><ele>0.0</ele><time>2026-04-25T06:15:37Z</time></trkpt><trkpt lat="43.31201755734821" lon="10.488005052225956"><ele>0.0</ele><time>2026-04-25T06:15:42Z</time></trkpt><trkpt lat="43.31206043827071" lon="10.488081488179354"><ele>0.0</ele><time>2026-04-25T06:15:47Z</time></trkpt><trkpt lat="43.31210425197683" lon="10.488156738556295"><ele>0.0</ele><time>2026-04-25T06:15:52Z</time></trkpt><trkpt lat="43.31214281123987" lon="10.488227763054692"><ele>0.0</ele><time>2026-04-25T06:15:56Z</time></trkpt><trkpt lat="43.31219167728767" lon="10.488309146173044"><ele>0.0</ele><time>2026-04-25T06:16:01Z</time></trkpt><trkpt lat="43.31223999497662" lon="10.488395674353551"><ele>0.0</ele><time>2026-04-25T06:16:06Z</time></trkpt><trkpt lat="43.31228632856021" lon="10.488475425914679"><ele>0.0</ele><time>2026-04-25T06:16:11Z</time></trkpt><trkpt lat="43.31233557420999" lon="10.488554689245703"><ele>0.0</ele><time>2026-04-25T06:16:16Z</time></trkpt><trkpt lat="43.31238459403191" lon="10.488632095178094"><ele>0.0</ele><time>2026-04-25T06:16:21Z</time></trkpt><trkpt lat="43.31242859634081" lon="10.48871316243234"><ele>-0.14285714285714285</ele><time>2026-04-25T06:16:26Z</time></trkpt><trkpt lat="43.312473324394745" lon="10.488795321193516"><ele>-0.2857142857142857</ele><time>2026-04-25T06:16:31Z</time></trkpt><trkpt lat="43.312521914926045" lon="10.48887582558638"><ele>-0.42857142857142855</ele><time>2026-04-25T06:16:36Z</time></trkpt><trkpt lat="43.31256685572167" lon="10.48895289146721"><ele>-0.5714285714285714</ele><time>2026-04-25T06:16:41Z</time></trkpt><trkpt lat="43.312604940987676" lon="10.489025838688883"><ele>-0.7142857142857142</ele><time>2026-04-25T06:16:45Z</time></trkpt><trkpt lat="43.31265060412872" lon="10.48910493449227"><ele>-0.8571428571428571</ele><time>2026-04-25T06:16:50Z</time></trkpt><trkpt lat="43.31269529111972" lon="10.489182224416211"><ele>-1.0</ele><time>2026-04-25T06:16:55Z</time></trkpt><trkpt lat="43.31274448480584" lon="10.489257281189902"><ele>-1.0</ele><time>2026-04-25T06:17:00Z</time></trkpt><trkpt lat="43.312784576644866" lon="10.489338467950299"><ele>-0.9999999999999999</ele><time>2026-04-25T06:17:05Z</time></trkpt><trkpt lat="43.31283418664334" lon="10.489419428681687"><ele>-1.0</ele><time>2026-04-25T06:17:10Z</time></trkpt><trkpt lat="43.31288284842916" lon="10.489498015683674"><ele>-1.0</ele><time>2026-04-25T06:17:15Z</time></trkpt><trkpt lat="43.31293177728856" lon="10.489574777394227"><ele>-0.9999999999999999</ele><time>2026-04-25T06:17:20Z</time></trkpt><trkpt lat="43.31297935765221" lon="10.489650199473516"><ele>-1.0</ele><time>2026-04-25T06:17:25Z</time></trkpt><trkpt lat="43.313021258532224" lon="10.48971637280122"><ele>-1.0</ele><time>2026-04-25T06:17:29Z</time></trkpt><trkpt lat="43.313064001846676" lon="10.489790681126202"><ele>-0.5714285714285714</ele><time>2026-04-25T06:17:34Z</time></trkpt><trkpt lat="43.31310579097197" lon="10.489873751438422"><ele>-0.1428571428571428</ele><time>2026-04-25T06:17:39Z</time></trkpt><trkpt lat="43.31315290485917" lon="10.489941275304137"><ele>0.2857142857142857</ele><time>2026-04-25T06:17:44Z</time></trkpt><trkpt lat="43.3131940991248" lon="10.490027472545119"><ele>0.7142857142857142</ele><time>2026-04-25T06:17:49Z</time></trkpt><trkpt lat="43.31324090635091" lon="10.490109021177679"><ele>1.1428571428571428</ele><time>2026-04-25T06:17:54Z</time></trkpt><trkpt lat="43.31329101142797" lon="10.490184095758966"><ele>1.5714285714285714</ele><time>2026-04-25T06:17:59Z</time></trkpt><trkpt lat="43.3133375031487" lon="10.490266912919802"><ele>2.0</ele><time>2026-04-25T06:18:04Z</time></trkpt><trkpt lat="43.313381995168" lon="10.490347714276002"><ele>2.142857142857143</ele><time>2026-04-25T06:18:09Z</time></trkpt><trkpt lat="43.313421910486056" lon="10.49042698368025"><ele>2.2857142857142856</ele><time>2026-04-25T06:18:14Z</time></trkpt><trkpt lat="43.31347448869883" lon="10.490509285222766"><ele>2.4285714285714284</ele><time>2026-04-25T06:18:19Z</time></trkpt><trkpt lat="43.31352174950447" lon="10.490582005603608"><ele>2.571428571428571</ele><time>2026-04-25T06:18:24Z</time></trkpt><trkpt lat="43.31357120287936" lon="10.490652917496604"><ele>2.7142857142857144</ele><time>2026-04-25T06:18:29Z</time></trkpt><trkpt lat="43.31360995007852" lon="10.49072792482967"><ele>2.8571428571428568</ele><time>2026-04-25T06:18:34Z</time></trkpt><trkpt lat="43.313653912727794" lon="10.490800472133586"><ele>3.0</ele><time>2026-04-25T06:18:39Z</time></trkpt><trkpt lat="43.31369561192554" lon="10.490883885734874"><ele>2.9999999999999996</ele><time>2026-04-25T06:18:44Z</time></trkpt><trkpt lat="43.31373920444269" lon="10.490961531429924"><ele>3.0</ele><time>2026-04-25T06:18:49Z</time></trkpt><trkpt lat="43.31377403246803" lon="10.491035454386873"><ele>3.0</ele><time>2026-04-25T06:18:53Z</time></trkpt><trkpt lat="43.31381879736197" lon="10.491114359313656"><ele>3.0</ele><time>2026-04-25T06:18:58Z</time></trkpt><trkpt lat="43.313869409771414" lon="10.491192013642591"><ele>3.0</ele><time>2026-04-25T06:19:03Z</time></trkpt><trkpt lat="43.313918423449906" lon="10.49127524554388"><ele>2.9999999999999996</ele><time>2026-04-25T06:19:08Z</time></trkpt><trkpt lat="43.31396027750425" lon="10.491354317372453"><ele>3.0</ele><time>2026-04-25T06:19:13Z</time></trkpt><trkpt lat="43.31400702536965" lon="10.491429934845954"><ele>2.8333333333333335</ele><time>2026-04-25T06:19:18Z</time></trkpt><trkpt lat="43.31405314380453" lon="10.491509775265415"><ele>2.6666666666666665</ele><time>2026-04-25T06:19:23Z</time></trkpt><trkpt lat="43.31409832725679" lon="10.491596119325322"><ele>2.5</ele><time>2026-04-25T06:19:28Z</time></trkpt><trkpt lat="43.31414738264393" lon="10.491677169264099"><ele>2.333333333333333</ele><time>2026-04-25T06:19:33Z</time></trkpt><trkpt lat="43.31419540296569" lon="10.49175697508962"><ele>2.1666666666666665</ele><time>2026-04-25T06:19:38Z</time></trkpt><trkpt lat="43.31424571603644" lon="10.491837145822862"><ele>2.0</ele><time>2026-04-25T06:19:43Z</time></trkpt><trkpt lat="43.31429444033456" lon="10.491913983328883"><ele>2.0</ele><time>2026-04-25T06:19:48Z</time></trkpt><trkpt lat="43.31434207394408" lon="10.49199479125225"><ele>1.9999999999999998</ele><time>2026-04-25T06:19:53Z</time></trkpt><trkpt lat="43.31439034710569" lon="10.492073478875053"><ele>2.0</ele><time>2026-04-25T06:19:58Z</time></trkpt><trkpt lat="43.31442567881089" lon="10.492146015027945"><ele>2.0</ele><time>2026-04-25T06:20:02Z</time></trkpt><trkpt lat="43.31447296996051" lon="10.492216261499882"><ele>1.9999999999999998</ele><time>2026-04-25T06:20:07Z</time></trkpt><trkpt lat="43.314520680276736" lon="10.492296371322752"><ele>2.0</ele><time>2026-04-25T06:20:12Z</time></trkpt><trkpt lat="43.31456415407357" lon="10.492369503196652"><ele>2.0</ele><time>2026-04-25T06:20:17Z</time></trkpt><trkpt lat="43.314610478903894" lon="10.492448595107945"><ele>2.0</ele><time>2026-04-25T06:20:22Z</time></trkpt><trkpt lat="43.31465401773043" lon="10.492521456790161"><ele>1.9999999999999998</ele><time>2026-04-25T06:20:27Z</time></trkpt><trkpt lat="43.31469343160049" lon="10.492594586333484"><ele>2.0</ele><time>2026-04-25T06:20:31Z</time></trkpt><trkpt lat="43.31473996207495" lon="10.492670163729473"><ele>2.0</ele><time>2026-04-25T06:20:36Z</time></trkpt><trkpt lat="43.31478184713196" lon="10.492749961727252"><ele>1.9999999999999998</ele><time>2026-04-25T06:20:41Z</time></trkpt><trkpt lat="43.31482566670658" lon="10.492818569407909"><ele>2.0</ele><time>2026-04-25T06:20:46Z</time></trkpt><trkpt lat="43.31487391160038" lon="10.492897385019305"><ele>2.0</ele><time>2026-04-25T06:20:51Z</time></trkpt><trkpt lat="43.314913771244335" lon="10.492964658204155"><ele>2.0</ele><time>2026-04-25T06:20:56Z</time></trkpt><trkpt lat="43.31496565255233" lon="10.493044804992442"><ele>1.9999999999999998</ele><time>2026-04-25T06:21:01Z</time></trkpt><trkpt lat="43.3150113633594" lon="10.49311816388188"><ele>2.0</ele><time>2026-04-25T06:21:06Z</time></trkpt><trkpt lat="43.31505613883033" lon="10.49319643446035"><ele>2.0</ele><time>2026-04-25T06:21:11Z</time></trkpt><trkpt lat="43.31510175698969" lon="10.493280798665014"><ele>1.9999999999999998</ele><time>2026-04-25T06:21:16Z</time></trkpt><trkpt lat="43.315149394314176" lon="10.493364591616013"><ele>2.0</ele><time>2026-04-25T06:21:21Z</time></trkpt><trkpt lat="43.31519365350521" lon="10.493442298233294"><ele>2.0</ele><time>2026-04-25T06:21:26Z</time></trkpt><trkpt lat="43.315232463780745" lon="10.493520442671723"><ele>2.0</ele><time>2026-04-25T06:21:31Z</time></trkpt><trkpt lat="43.31528237075812" lon="10.49359748444731"><ele>1.9999999999999998</ele><time>2026-04-25T06:21:36Z</time></trkpt><trkpt lat="43.315327238428516" lon="10.493666495472336"><ele>2.0</ele><time>2026-04-25T06:21:40Z</time></trkpt><trkpt lat="43.315371995611216" lon="10.493740181271107"><ele>2.0</ele><time>2026-04-25T06:21:45Z</time></trkpt><trkpt lat="43.315416336196684" lon="10.493810156375128"><ele>1.9999999999999998</ele><time>2026-04-25T06:21:49Z</time></trkpt><trkpt lat="43.31545776631801" lon="10.493889302520662"><ele>2.0</ele><time>2026-04-25T06:21:54Z</time></trkpt><trkpt lat="43.315501672482824" lon="10.493959753525067"><ele>2.0</ele><time>2026-04-25T06:21:59Z</time></trkpt><trkpt lat="43.31555404404469" lon="10.494029413218408"><ele>2.0</ele><time>2026-04-25T06:22:04Z</time></trkpt><trkpt lat="43.31559427020753" lon="10.494104639970464"><ele>1.9999999999999998</ele><time>2026-04-25T06:22:09Z</time></trkpt><trkpt lat="43.315635042790646" lon="10.494177779477832"><ele>2.0</ele><time>2026-04-25T06:22:14Z</time></trkpt><trkpt lat="43.31567864302927" lon="10.494255027380195"><ele>2.0</ele><time>2026-04-25T06:22:19Z</time></trkpt><trkpt lat="43.31571821213105" lon="10.494329684155982"><ele>1.9999999999999998</ele><time>2026-04-25T06:22:24Z</time></trkpt><trkpt lat="43.31576075209441" lon="10.494398089887396"><ele>2.0</ele><time>2026-04-25T06:22:29Z</time></trkpt><trkpt lat="43.3158067724796" lon="10.494476049162548"><ele>2.0</ele><time>2026-04-25T06:22:34Z</time></trkpt><trkpt lat="43.31584950916927" lon="10.494559109578695"><ele>2.0</ele><time>2026-04-25T06:22:39Z</time></trkpt><trkpt lat="43.31589475618034" lon="10.494635740067457"><ele>1.9999999999999998</ele><time>2026-04-25T06:22:44Z</time></trkpt><trkpt lat="43.315947304799266" lon="10.494713943982124"><ele>2.0</ele><time>2026-04-25T06:22:49Z</time></trkpt><trkpt lat="43.31598924431749" lon="10.49478729216839"><ele>2.0</ele><time>2026-04-25T06:22:54Z</time></trkpt><trkpt lat="43.31603426858977" lon="10.494864639297077"><ele>1.9999999999999998</ele><time>2026-04-25T06:22:59Z</time></trkpt><trkpt lat="43.31608081782953" lon="10.49494228358284"><ele>2.0</ele><time>2026-04-25T06:23:04Z</time></trkpt><trkpt lat="43.31612777958472" lon="10.495016664463982"><ele>2.0</ele><time>2026-04-25T06:23:09Z</time></trkpt><trkpt lat="43.31616725495148" lon="10.495084236448792"><ele>2.0</ele><time>2026-04-25T06:23:14Z</time></trkpt><trkpt lat="43.31621320008734" lon="10.49515804987703"><ele>1.9999999999999998</ele><time>2026-04-25T06:23:19Z</time></trkpt><trkpt lat="43.3162565807593" lon="10.495233365013659"><ele>2.0</ele><time>2026-04-25T06:23:24Z</time></trkpt><trkpt lat="43.31629644322152" lon="10.495311948089467"><ele>2.0</ele><time>2026-04-25T06:23:29Z</time></trkpt><trkpt lat="43.31634096678823" lon="10.495395147645489"><ele>1.9999999999999998</ele><time>2026-04-25T06:23:34Z</time></trkpt><trkpt lat="43.316391098496766" lon="10.495469138742438"><ele>2.0</ele><time>2026-04-25T06:23:40Z</time></trkpt><trkpt lat="43.31644035106069" lon="10.495543187408584"><ele>2.0</ele><time>2026-04-25T06:23:45Z</time></trkpt><trkpt lat="43.316480835362455" lon="10.495613833446498"><ele>1.857142857142857</ele><time>2026-04-25T06:23:49Z</time></trkpt><trkpt lat="43.31652209741007" lon="10.495697455843104"><ele>1.714285714285714</ele><time>2026-04-25T06:23:54Z</time></trkpt><trkpt lat="43.31656933548397" lon="10.495772598103935"><ele>1.5714285714285714</ele><time>2026-04-25T06:23:59Z</time></trkpt><trkpt lat="43.316613130547736" lon="10.49584539575304"><ele>1.4285714285714284</ele><time>2026-04-25T06:24:04Z</time></trkpt><trkpt lat="43.316656687487374" lon="10.49592466031288"><ele>1.2857142857142856</ele><time>2026-04-25T06:24:09Z</time></trkpt><trkpt lat="43.316700741977186" lon="10.496004214836109"><ele>1.1428571428571428</ele><time>2026-04-25T06:24:14Z</time></trkpt><trkpt lat="43.31674959497862" lon="10.496082252831336"><ele>1.0</ele><time>2026-04-25T06:24:19Z</time></trkpt><trkpt lat="43.31679352102752" lon="10.496156653198824"><ele>1.0</ele><time>2026-04-25T06:24:24Z</time></trkpt><trkpt lat="43.31684362849258" lon="10.496242022571435"><ele>0.9999999999999999</ele><time>2026-04-25T06:24:29Z</time></trkpt><trkpt lat="43.316888487712795" lon="10.49631981207478"><ele>1.0</ele><time>2026-04-25T06:24:34Z</time></trkpt><trkpt lat="43.3169306404433" lon="10.496398439890092"><ele>1.0</ele><time>2026-04-25T06:24:39Z</time></trkpt><trkpt lat="43.31697404096946" lon="10.496472025560584"><ele>0.9999999999999999</ele><time>2026-04-25T06:24:44Z</time></trkpt><trkpt lat="43.317019506728265" lon="10.496548079737911"><ele>1.0</ele><time>2026-04-25T06:24:49Z</time></trkpt><trkpt lat="43.31706256903553" lon="10.496624380884304"><ele>1.0</ele><time>2026-04-25T06:24:54Z</time></trkpt><trkpt lat="43.31711095441174" lon="10.49669941254228"><ele>1.1428571428571428</ele><time>2026-04-25T06:24:59Z</time></trkpt><trkpt lat="43.31716067603182" lon="10.496776129814076"><ele>1.2857142857142856</ele><time>2026-04-25T06:25:04Z</time></trkpt><trkpt lat="43.31720589778822" lon="10.49685097335254"><ele>1.4285714285714284</ele><time>2026-04-25T06:25:09Z</time></trkpt><trkpt lat="43.31725173263403" lon="10.496932203490296"><ele>1.5714285714285714</ele><time>2026-04-25T06:25:14Z</time></trkpt><trkpt lat="43.31729674324684" lon="10.497005566940352"><ele>1.714285714285714</ele><time>2026-04-25T06:25:19Z</time></trkpt><trkpt lat="43.317335554033335" lon="10.497074343833145"><ele>1.857142857142857</ele><time>2026-04-25T06:25:23Z</time></trkpt><trkpt lat="43.31736302964531" lon="10.497152319346139"><ele>2.0</ele><time>2026-04-25T06:25:27Z</time></trkpt><trkpt lat="43.317366342030155" lon="10.497250506292982"><ele>2.142857142857143</ele><time>2026-04-25T06:25:32Z</time></trkpt><trkpt lat="43.317368907194414" lon="10.497358469748699"><ele>2.2857142857142856</ele><time>2026-04-25T06:25:37Z</time></trkpt><trkpt lat="43.31737236127971" lon="10.497446719149236"><ele>2.4285714285714284</ele><time>2026-04-25T06:25:41Z</time></trkpt><trkpt lat="43.31737377124156" lon="10.497563793219388"><ele>2.571428571428571</ele><time>2026-04-25T06:25:46Z</time></trkpt><trkpt lat="43.3173696487393" lon="10.497654269241638"><ele>2.7142857142857144</ele><time>2026-04-25T06:25:51Z</time></trkpt><trkpt lat="43.31736115301947" lon="10.497748389721101"><ele>2.8571428571428568</ele><time>2026-04-25T06:25:56Z</time></trkpt><trkpt lat="43.31734282601873" lon="10.497839905918406"><ele>3.0</ele><time>2026-04-25T06:26:01Z</time></trkpt><trkpt lat="43.317309176716705" lon="10.497917993553978"><ele>3.0</ele><time>2026-04-25T06:26:07Z</time></trkpt><trkpt lat="43.31729758716672" lon="10.498005516087883"><ele>3.0</ele><time>2026-04-25T06:26:13Z</time></trkpt><trkpt lat="43.31727404827554" lon="10.498149427921957"><ele>3.0</ele><time>2026-04-25T06:27:04Z</time></trkpt><trkpt lat="43.31725653609822" lon="10.498246064041924"><ele>3.0</ele><time>2026-04-25T06:27:09Z</time></trkpt><trkpt lat="43.317273769802156" lon="10.498345736309089"><ele>3.0</ele><time>2026-04-25T06:27:14Z</time></trkpt><trkpt lat="43.31732020177462" lon="10.498412121102216"><ele>3.0</ele><time>2026-04-25T06:27:20Z</time></trkpt><trkpt lat="43.317361967140315" lon="10.498486235364426"><ele>2.9999999999999996</ele><time>2026-04-25T06:27:25Z</time></trkpt><trkpt lat="43.31740462309319" lon="10.498563480173384"><ele>3.0</ele><time>2026-04-25T06:27:30Z</time></trkpt><trkpt lat="43.31745253887362" lon="10.498648090218847"><ele>3.0</ele><time>2026-04-25T06:27:35Z</time></trkpt><trkpt lat="43.317495453176164" lon="10.498723970148458"><ele>3.0</ele><time>2026-04-25T06:27:39Z</time></trkpt><trkpt lat="43.31754323325029" lon="10.49880418096102"><ele>3.0</ele><time>2026-04-25T06:27:44Z</time></trkpt><trkpt lat="43.317594479174204" lon="10.498876143984882"><ele>2.9999999999999996</ele><time>2026-04-25T06:27:49Z</time></trkpt><trkpt lat="43.317638798386376" lon="10.498944160788417"><ele>3.0</ele><time>2026-04-25T06:27:54Z</time></trkpt><trkpt lat="43.317686172825496" lon="10.499009290922572"><ele>2.9999999999999996</ele><time>2026-04-25T06:27:59Z</time></trkpt><trkpt lat="43.317723401144015" lon="10.499079570151599"><ele>3.0</ele><time>2026-04-25T06:28:03Z</time></trkpt><trkpt lat="43.317770224386805" lon="10.49914762858779"><ele>3.0</ele><time>2026-04-25T06:28:08Z</time></trkpt><trkpt lat="43.31782053175462" lon="10.499214038409006"><ele>3.0</ele><time>2026-04-25T06:28:13Z</time></trkpt><trkpt lat="43.31786792517199" lon="10.499288302662052"><ele>3.0</ele><time>2026-04-25T06:28:18Z</time></trkpt><trkpt lat="43.31791574356938" lon="10.499365937961569"><ele>2.9999999999999996</ele><time>2026-04-25T06:28:23Z</time></trkpt><trkpt lat="43.31795523569532" lon="10.499439284057726"><ele>3.0</ele><time>2026-04-25T06:28:27Z</time></trkpt><trkpt lat="43.31800757539111" lon="10.49950181898791"><ele>3.1428571428571423</ele><time>2026-04-25T06:28:32Z</time></trkpt><trkpt lat="43.318070915402465" lon="10.499541393956848"><ele>3.2857142857142856</ele><time>2026-04-25T06:28:37Z</time></trkpt><trkpt lat="43.31812655961994" lon="10.499584578417446"><ele>3.4285714285714284</ele><time>2026-04-25T06:28:41Z</time></trkpt><trkpt lat="43.31818454430894" lon="10.499619832295608"><ele>3.571428571428571</ele><time>2026-04-25T06:28:45Z</time></trkpt><trkpt lat="43.318256241797265" lon="10.499661738673256"><ele>3.714285714285714</ele><time>2026-04-25T06:28:50Z</time></trkpt><trkpt lat="43.31832576916091" lon="10.499709803140869"><ele>3.8571428571428568</ele><time>2026-04-25T06:28:55Z</time></trkpt><trkpt lat="43.3183877333555" lon="10.499753767514793"><ele>4.0</ele><time>2026-04-25T06:29:00Z</time></trkpt><trkpt lat="43.31846059148402" lon="10.499764762525754"><ele>4.0</ele><time>2026-04-25T06:29:05Z</time></trkpt><trkpt lat="43.31853749409203" lon="10.499770957389133"><ele>3.9999999999999996</ele><time>2026-04-25T06:29:10Z</time></trkpt><trkpt lat="43.31861298285982" lon="10.499772366235744"><ele>4.0</ele><time>2026-04-25T06:29:15Z</time></trkpt><trkpt lat="43.318685024760896" lon="10.499775319116965"><ele>4.0</ele><time>2026-04-25T06:29:20Z</time></trkpt><trkpt lat="43.31875070211086" lon="10.49977169296499"><ele>3.9999999999999996</ele><time>2026-04-25T06:29:24Z</time></trkpt><trkpt lat="43.31881757873198" lon="10.499779347650458"><ele>4.0</ele><time>2026-04-25T06:29:30Z</time></trkpt><trkpt lat="43.31888452940328" lon="10.499812240027614"><ele>4.0</ele><time>2026-04-25T06:29:35Z</time></trkpt><trkpt lat="43.31892632676226" lon="10.499883213577972"><ele>3.8571428571428568</ele><time>2026-04-25T06:29:39Z</time></trkpt><trkpt lat="43.31897236265879" lon="10.499950343881366"><ele>3.714285714285714</ele><time>2026-04-25T06:29:43Z</time></trkpt><trkpt lat="43.31902306854091" lon="10.500027385782037"><ele>3.571428571428571</ele><time>2026-04-25T06:29:48Z</time></trkpt><trkpt lat="43.31906835122154" lon="10.500111176759177"><ele>3.4285714285714284</ele><time>2026-04-25T06:29:53Z</time></trkpt><trkpt lat="43.31911077782367" lon="10.500204820434778"><ele>3.2857142857142856</ele><time>2026-04-25T06:29:58Z</time></trkpt><trkpt lat="43.319148979199554" lon="10.500295120965065"><ele>3.1428571428571423</ele><time>2026-04-25T06:30:03Z</time></trkpt><trkpt lat="43.31918625844365" lon="10.500383377340011"><ele>3.0</ele><time>2026-04-25T06:30:09Z</time></trkpt><trkpt lat="43.3192321846214" lon="10.50045241644635"><ele>2.8571428571428568</ele><time>2026-04-25T06:30:13Z</time></trkpt><trkpt lat="43.319281834575904" lon="10.500538520181422"><ele>2.7142857142857144</ele><time>2026-04-25T06:30:18Z</time></trkpt><trkpt lat="43.31932611175114" lon="10.500615351772417"><ele>2.571428571428571</ele><time>2026-04-25T06:30:23Z</time></trkpt><trkpt lat="43.31936942790971" lon="10.500702781406542"><ele>2.4285714285714284</ele><time>2026-04-25T06:30:29Z</time></trkpt><trkpt lat="43.31941098004603" lon="10.500774027673632"><ele>2.2857142857142856</ele><time>2026-04-25T06:30:33Z</time></trkpt><trkpt lat="43.319441492890654" lon="10.500850459029675"><ele>2.142857142857143</ele><time>2026-04-25T06:30:37Z</time></trkpt><trkpt lat="43.31948640857767" lon="10.50093424528007"><ele>2.0</ele><time>2026-04-25T06:30:42Z</time></trkpt><trkpt lat="43.319535007759086" lon="10.501004308165113"><ele>1.9999999999999998</ele><time>2026-04-25T06:30:47Z</time></trkpt><trkpt lat="43.31957432616725" lon="10.50109409900438"><ele>2.0</ele><time>2026-04-25T06:30:52Z</time></trkpt><trkpt lat="43.31962924993458" lon="10.501169178660723"><ele>2.0</ele><time>2026-04-25T06:30:57Z</time></trkpt><trkpt lat="43.3196715944898" lon="10.501251253650814"><ele>2.0</ele><time>2026-04-25T06:31:02Z</time></trkpt><trkpt lat="43.31970211711633" lon="10.501333541999355"><ele>1.9999999999999998</ele><time>2026-04-25T06:31:06Z</time></trkpt><trkpt lat="43.31975123824947" lon="10.501418493929924"><ele>2.0</ele><time>2026-04-25T06:31:12Z</time></trkpt><trkpt lat="43.31980401134336" lon="10.501497327176928"><ele>2.4285714285714284</ele><time>2026-04-25T06:31:17Z</time></trkpt><trkpt lat="43.319838941404335" lon="10.501583949336585"><ele>2.8571428571428568</ele><time>2026-04-25T06:31:21Z</time></trkpt><trkpt lat="43.31987584367607" lon="10.501655046238364"><ele>3.2857142857142856</ele><time>2026-04-25T06:31:25Z</time></trkpt><trkpt lat="43.31991503730523" lon="10.50174032397547"><ele>3.7142857142857144</ele><time>2026-04-25T06:31:29Z</time></trkpt><trkpt lat="43.31995561654776" lon="10.501815958431585"><ele>4.142857142857143</ele><time>2026-04-25T06:31:33Z</time></trkpt><trkpt lat="43.31998889815684" lon="10.501894806890565"><ele>4.571428571428571</ele><time>2026-04-25T06:31:37Z</time></trkpt><trkpt lat="43.32003654695346" lon="10.501964567988864"><ele>5.0</ele><time>2026-04-25T06:31:43Z</time></trkpt><trkpt lat="43.32007604675665" lon="10.502037690583306"><ele>4.857142857142857</ele><time>2026-04-25T06:31:47Z</time></trkpt><trkpt lat="43.320115261837984" lon="10.50211784389013"><ele>4.714285714285714</ele><time>2026-04-25T06:31:52Z</time></trkpt><trkpt lat="43.32015511528352" lon="10.502199805170072"><ele>4.571428571428571</ele><time>2026-04-25T06:31:57Z</time></trkpt><trkpt lat="43.320192875107125" lon="10.502270455463044"><ele>4.428571428571429</ele><time>2026-04-25T06:32:01Z</time></trkpt><trkpt lat="43.32023355339961" lon="10.502357782759002"><ele>4.285714285714286</ele><time>2026-04-25T06:32:06Z</time></trkpt><trkpt lat="43.320272525758654" lon="10.502431279740778"><ele>4.142857142857142</ele><time>2026-04-25T06:32:10Z</time></trkpt><trkpt lat="43.32030876387246" lon="10.502514210871016"><ele>4.0</ele><time>2026-04-25T06:32:15Z</time></trkpt><trkpt lat="43.32036030306287" lon="10.502596835091252"><ele>4.0</ele><time>2026-04-25T06:32:20Z</time></trkpt><trkpt lat="43.32040536399403" lon="10.502676263011564"><ele>3.9999999999999996</ele><time>2026-04-25T06:32:25Z</time></trkpt><trkpt lat="43.320444194466184" lon="10.502751397533368"><ele>4.0</ele><time>2026-04-25T06:32:30Z</time></trkpt><trkpt lat="43.32048420017734" lon="10.502827830056273"><ele>4.0</ele><time>2026-04-25T06:32:34Z</time></trkpt><trkpt lat="43.32052747874389" lon="10.502910422189931"><ele>3.9999999999999996</ele><time>2026-04-25T06:32:38Z</time></trkpt><trkpt lat="43.32056569134613" lon="10.502983048944278"><ele>4.0</ele><time>2026-04-25T06:32:42Z</time></trkpt><trkpt lat="43.32060542556096" lon="10.503066963937814"><ele>4.0</ele><time>2026-04-25T06:32:47Z</time></trkpt><trkpt lat="43.32065317875882" lon="10.503142677196925"><ele>3.8571428571428568</ele><time>2026-04-25T06:32:52Z</time></trkpt><trkpt lat="43.320697342303994" lon="10.503216353644362"><ele>3.714285714285714</ele><time>2026-04-25T06:32:57Z</time></trkpt><trkpt lat="43.320728060705896" lon="10.503294900947877"><ele>3.571428571428571</ele><time>2026-04-25T06:33:01Z</time></trkpt><trkpt lat="43.32077036966379" lon="10.503374226557382"><ele>3.4285714285714284</ele><time>2026-04-25T06:33:05Z</time></trkpt><trkpt lat="43.32081729314031" lon="10.503443469349687"><ele>3.2857142857142856</ele><time>2026-04-25T06:33:09Z</time></trkpt><trkpt lat="43.32086906953995" lon="10.503509380695744"><ele>3.1428571428571423</ele><time>2026-04-25T06:33:13Z</time></trkpt><trkpt lat="43.32089768846144" lon="10.50358679159737"><ele>3.0</ele><time>2026-04-25T06:33:17Z</time></trkpt><trkpt lat="43.32092588207634" lon="10.503680137535463"><ele>2.8571428571428568</ele><time>2026-04-25T06:33:22Z</time></trkpt><trkpt lat="43.32095920884932" lon="10.503760732084862"><ele>2.7142857142857144</ele><time>2026-04-25T06:33:27Z</time></trkpt><trkpt lat="43.32100129364713" lon="10.50384125050716"><ele>2.571428571428571</ele><time>2026-04-25T06:33:32Z</time></trkpt><trkpt lat="43.32104076572798" lon="10.503920939607152"><ele>2.4285714285714284</ele><time>2026-04-25T06:33:37Z</time></trkpt><trkpt lat="43.32107699867329" lon="10.504001586413112"><ele>2.2857142857142856</ele><time>2026-04-25T06:33:42Z</time></trkpt><trkpt lat="43.32112727149358" lon="10.504076478694262"><ele>2.142857142857143</ele><time>2026-04-25T06:33:47Z</time></trkpt><trkpt lat="43.321166097031444" lon="10.504165229827"><ele>2.0</ele><time>2026-04-25T06:33:52Z</time></trkpt><trkpt lat="43.32119901407122" lon="10.504252439567706"><ele>2.0</ele><time>2026-04-25T06:33:57Z</time></trkpt><trkpt lat="43.32123665339725" lon="10.504324032155461"><ele>1.9999999999999998</ele><time>2026-04-25T06:34:02Z</time></trkpt><trkpt lat="43.321283318065795" lon="10.504391376801474"><ele>2.0</ele><time>2026-04-25T06:34:07Z</time></trkpt><trkpt lat="43.32133228182022" lon="10.504448712915316"><ele>2.0</ele><time>2026-04-25T06:34:11Z</time></trkpt><trkpt lat="43.32134688327955" lon="10.504538469055246"><ele>1.9999999999999998</ele><time>2026-04-25T06:34:15Z</time></trkpt><trkpt lat="43.32139277829877" lon="10.50462286901097"><ele>2.0</ele><time>2026-04-25T06:34:20Z</time></trkpt><trkpt lat="43.32143159765155" lon="10.504701830435057"><ele>2.0</ele><time>2026-04-25T06:34:25Z</time></trkpt><trkpt lat="43.32147525660028" lon="10.504773433457725"><ele>2.2857142857142856</ele><time>2026-04-25T06:34:30Z</time></trkpt><trkpt lat="43.321515672542866" lon="10.504853853039164"><ele>2.571428571428571</ele><time>2026-04-25T06:34:35Z</time></trkpt><trkpt lat="43.32156059661185" lon="10.504936429082885"><ele>2.8571428571428568</ele><time>2026-04-25T06:34:40Z</time></trkpt><trkpt lat="43.32160443830888" lon="10.505007458547265"><ele>3.142857142857143</ele><time>2026-04-25T06:34:45Z</time></trkpt><trkpt lat="43.32164972526003" lon="10.505084129260327"><ele>3.428571428571428</ele><time>2026-04-25T06:34:50Z</time></trkpt><trkpt lat="43.32169442325572" lon="10.50516135571011"><ele>3.714285714285714</ele><time>2026-04-25T06:34:55Z</time></trkpt><trkpt lat="43.32174041139465" lon="10.505239099073087"><ele>4.0</ele><time>2026-04-25T06:35:00Z</time></trkpt><trkpt lat="43.32178957139445" lon="10.50531130234056"><ele>4.0</ele><time>2026-04-25T06:35:05Z</time></trkpt><trkpt lat="43.32183079514062" lon="10.505384438756455"><ele>3.9999999999999996</ele><time>2026-04-25T06:35:09Z</time></trkpt><trkpt lat="43.32187426909342" lon="10.505472304969139"><ele>4.0</ele><time>2026-04-25T06:35:14Z</time></trkpt><trkpt lat="43.32189781130474" lon="10.505552709390734"><ele>4.0</ele><time>2026-04-25T06:35:19Z</time></trkpt><trkpt lat="43.321940895582905" lon="10.505627085924965"><ele>3.9999999999999996</ele><time>2026-04-25T06:35:26Z</time></trkpt><trkpt lat="43.321972340691985" lon="10.505705631593344"><ele>4.0</ele><time>2026-04-25T06:35:31Z</time></trkpt><trkpt lat="43.32202106199295" lon="10.505777247234676"><ele>4.0</ele><time>2026-04-25T06:35:36Z</time></trkpt><trkpt lat="43.322073367630985" lon="10.505859770503381"><ele>4.0</ele><time>2026-04-25T06:35:41Z</time></trkpt><trkpt lat="43.3221117360128" lon="10.505931714614178"><ele>3.9999999999999996</ele><time>2026-04-25T06:35:45Z</time></trkpt><trkpt lat="43.322148504473354" lon="10.506005304007566"><ele>4.0</ele><time>2026-04-25T06:35:49Z</time></trkpt><trkpt lat="43.32219072749204" lon="10.506088461493105"><ele>4.0</ele><time>2026-04-25T06:35:54Z</time></trkpt><trkpt lat="43.322232582349265" lon="10.506164595074138"><ele>3.9999999999999996</ele><time>2026-04-25T06:35:58Z</time></trkpt><trkpt lat="43.32227946997423" lon="10.506248522536524"><ele>4.0</ele><time>2026-04-25T06:36:03Z</time></trkpt><trkpt lat="43.322320616164994" lon="10.506320433495734"><ele>4.0</ele><time>2026-04-25T06:36:08Z</time></trkpt><trkpt lat="43.32235208919426" lon="10.506412524125444"><ele>4.142857142857142</ele><time>2026-04-25T06:36:13Z</time></trkpt><trkpt lat="43.322382169774016" lon="10.506492217962185"><ele>4.285714285714286</ele><time>2026-04-25T06:36:17Z</time></trkpt><trkpt lat="43.32242814985044" lon="10.506560768820325"><ele>4.428571428571429</ele><time>2026-04-25T06:36:21Z</time></trkpt><trkpt lat="43.322468967526625" lon="10.506651358073556"><ele>4.571428571428571</ele><time>2026-04-25T06:36:25Z</time></trkpt><trkpt lat="43.32251764314407" lon="10.50672746067929"><ele>4.714285714285714</ele><time>2026-04-25T06:36:30Z</time></trkpt><trkpt lat="43.32255921390756" lon="10.50682497461522"><ele>4.857142857142857</ele><time>2026-04-25T06:36:35Z</time></trkpt><trkpt lat="43.322600167934134" lon="10.506891388541094"><ele>5.0</ele><time>2026-04-25T06:36:39Z</time></trkpt><trkpt lat="43.32264874137851" lon="10.506955936024983"><ele>5.0</ele><time>2026-04-25T06:36:44Z</time></trkpt><trkpt lat="43.322693820981094" lon="10.507016376869787"><ele>5.0</ele><time>2026-04-25T06:36:48Z</time></trkpt><trkpt lat="43.32273048682813" lon="10.507087548505668"><ele>5.0</ele><time>2026-04-25T06:36:53Z</time></trkpt><trkpt lat="43.32276629852556" lon="10.5071676709988"><ele>5.0</ele><time>2026-04-25T06:36:58Z</time></trkpt><trkpt lat="43.322793939658396" lon="10.507264575006772"><ele>5.0</ele><time>2026-04-25T06:37:03Z</time></trkpt><trkpt lat="43.32283242067769" lon="10.50733456879554"><ele>5.0</ele><time>2026-04-25T06:37:07Z</time></trkpt><trkpt lat="43.32287929711104" lon="10.507420614501097"><ele>5.0</ele><time>2026-04-25T06:37:12Z</time></trkpt><trkpt lat="43.32292367050122" lon="10.507496294101896"><ele>5.0</ele><time>2026-04-25T06:37:16Z</time></trkpt><trkpt lat="43.32296773189568" lon="10.507574898520105"><ele>5.0</ele><time>2026-04-25T06:37:20Z</time></trkpt><trkpt lat="43.32300280854406" lon="10.507649192211929"><ele>5.0</ele><time>2026-04-25T06:37:25Z</time></trkpt><trkpt lat="43.32304215683037" lon="10.507722589296861"><ele>5.0</ele><time>2026-04-25T06:37:29Z</time></trkpt><trkpt lat="43.323084590975576" lon="10.507797495187639"><ele>5.0</ele><time>2026-04-25T06:37:34Z</time></trkpt><trkpt lat="43.323129724808304" lon="10.507877291874557"><ele>5.0</ele><time>2026-04-25T06:37:39Z</time></trkpt><trkpt lat="43.32317205279035" lon="10.507965655189686"><ele>5.0</ele><time>2026-04-25T06:37:43Z</time></trkpt><trkpt lat="43.32321165842244" lon="10.508057441075655"><ele>5.333333333333334</ele><time>2026-04-25T06:37:49Z</time></trkpt><trkpt lat="43.32323634605576" lon="10.508156982572206"><ele>5.666666666666667</ele><time>2026-04-25T06:37:53Z</time></trkpt><trkpt lat="43.323265487366825" lon="10.508240866700914"><ele>6.0</ele><time>2026-04-25T06:37:58Z</time></trkpt><trkpt lat="43.32328740367036" lon="10.508334354674183"><ele>6.333333333333334</ele><time>2026-04-25T06:38:03Z</time></trkpt><trkpt lat="43.323293500505756" lon="10.508464905559043"><ele>6.666666666666667</ele><time>2026-04-25T06:38:08Z</time></trkpt><trkpt lat="43.32329138282205" lon="10.508569732617525"><ele>7.0</ele><time>2026-04-25T06:38:13Z</time></trkpt><trkpt lat="43.323279481983334" lon="10.508673545644063"><ele>6.714285714285714</ele><time>2026-04-25T06:38:18Z</time></trkpt><trkpt lat="43.323247938426796" lon="10.508766116791493"><ele>6.428571428571429</ele><time>2026-04-25T06:38:23Z</time></trkpt><trkpt lat="43.32321257540156" lon="10.508856175614065"><ele>6.142857142857142</ele><time>2026-04-25T06:38:28Z</time></trkpt><trkpt lat="43.323162879216845" lon="10.508922999280442"><ele>5.857142857142858</ele><time>2026-04-25T06:38:33Z</time></trkpt><trkpt lat="43.323111036258304" lon="10.508988935640152"><ele>5.571428571428571</ele><time>2026-04-25T06:38:38Z</time></trkpt><trkpt lat="43.323064462855115" lon="10.509051105843199"><ele>5.285714285714286</ele><time>2026-04-25T06:38:42Z</time></trkpt><trkpt lat="43.323010355807135" lon="10.50912779460381"><ele>5.0</ele><time>2026-04-25T06:38:47Z</time></trkpt><trkpt lat="43.32297415672876" lon="10.509199022254451"><ele>5.0</ele><time>2026-04-25T06:38:51Z</time></trkpt><trkpt lat="43.322937801430434" lon="10.509289856172629"><ele>5.0</ele><time>2026-04-25T06:38:56Z</time></trkpt><trkpt lat="43.32291900946511" lon="10.50938982535054"><ele>5.0</ele><time>2026-04-25T06:39:01Z</time></trkpt><trkpt lat="43.32291987276769" lon="10.509482023381167"><ele>5.0</ele><time>2026-04-25T06:39:06Z</time></trkpt><trkpt lat="43.32292944908304" lon="10.509581893197513"><ele>5.0</ele><time>2026-04-25T06:39:11Z</time></trkpt><trkpt lat="43.3229420952531" lon="10.509673921942065"><ele>5.0</ele><time>2026-04-25T06:39:16Z</time></trkpt><trkpt lat="43.32296159615987" lon="10.509775152013793"><ele>5.0</ele><time>2026-04-25T06:39:21Z</time></trkpt><trkpt lat="43.32296882032613" lon="10.509881802968671"><ele>5.0</ele><time>2026-04-25T06:39:26Z</time></trkpt><trkpt lat="43.32293350702375" lon="10.509959046665836"><ele>5.0</ele><time>2026-04-25T06:39:31Z</time></trkpt><trkpt lat="43.32287460804719" lon="10.51000983323423"><ele>5.0</ele><time>2026-04-25T06:39:36Z</time></trkpt><trkpt lat="43.32280555414213" lon="10.510050217460423"><ele>5.0</ele><time>2026-04-25T06:39:41Z</time></trkpt><trkpt lat="43.32275191132768" lon="10.510095660563687"><ele>5.0</ele><time>2026-04-25T06:39:45Z</time></trkpt><trkpt lat="43.32268440170072" lon="10.510117884913711"><ele>5.0</ele><time>2026-04-25T06:39:50Z</time></trkpt><trkpt lat="43.32262181485649" lon="10.51014548934777"><ele>5.0</ele><time>2026-04-25T06:39:55Z</time></trkpt><trkpt lat="43.32255498882346" lon="10.51019656050972"><ele>5.0</ele><time>2026-04-25T06:40:01Z</time></trkpt><trkpt lat="43.32248566494324" lon="10.510239093055986"><ele>5.0</ele><time>2026-04-25T06:40:06Z</time></trkpt><trkpt lat="43.32242794512789" lon="10.510276255865984"><ele>5.0</ele><time>2026-04-25T06:40:10Z</time></trkpt><trkpt lat="43.322360178886996" lon="10.510315436269911"><ele>5.0</ele><time>2026-04-25T06:40:15Z</time></trkpt><trkpt lat="43.32229957620318" lon="10.5103483946506"><ele>5.0</ele><time>2026-04-25T06:40:20Z</time></trkpt><trkpt lat="43.322239089156945" lon="10.510387988643721"><ele>5.0</ele><time>2026-04-25T06:40:25Z</time></trkpt><trkpt lat="43.32216505441499" lon="10.510425709129809"><ele>5.0</ele><time>2026-04-25T06:40:30Z</time></trkpt><trkpt lat="43.322092433889374" lon="10.510468991313479"><ele>4.714285714285714</ele><time>2026-04-25T06:40:35Z</time></trkpt><trkpt lat="43.3220278439241" lon="10.510507863344554"><ele>4.428571428571429</ele><time>2026-04-25T06:40:40Z</time></trkpt><trkpt lat="43.321960646634246" lon="10.510551050323885"><ele>4.142857142857142</ele><time>2026-04-25T06:40:45Z</time></trkpt><trkpt lat="43.32189483970968" lon="10.510598019964588"><ele>3.8571428571428568</ele><time>2026-04-25T06:40:50Z</time></trkpt><trkpt lat="43.32182481350163" lon="10.510636864527784"><ele>3.571428571428571</ele><time>2026-04-25T06:40:55Z</time></trkpt><trkpt lat="43.32175440804227" lon="10.510670295292325"><ele>3.2857142857142856</ele><time>2026-04-25T06:41:00Z</time></trkpt><trkpt lat="43.321698403276926" lon="10.51070995239207"><ele>3.0</ele><time>2026-04-25T06:41:04Z</time></trkpt><trkpt lat="43.32163994191276" lon="10.51075328012345"><ele>2.9999999999999996</ele><time>2026-04-25T06:41:08Z</time></trkpt><trkpt lat="43.32157306072658" lon="10.510794157245922"><ele>3.0</ele><time>2026-04-25T06:41:14Z</time></trkpt><trkpt lat="43.321498154216194" lon="10.510839663058743"><ele>3.0</ele><time>2026-04-25T06:41:19Z</time></trkpt><trkpt lat="43.321435895930534" lon="10.510877055672367"><ele>3.0</ele><time>2026-04-25T06:41:23Z</time></trkpt><trkpt lat="43.321373044901094" lon="10.510928877264998"><ele>3.0</ele><time>2026-04-25T06:41:28Z</time></trkpt><trkpt lat="43.3213059712473" lon="10.510952483437718"><ele>2.9999999999999996</ele><time>2026-04-25T06:41:33Z</time></trkpt><trkpt lat="43.321242573809485" lon="10.510995344175113"><ele>3.0</ele><time>2026-04-25T06:41:38Z</time></trkpt><trkpt lat="43.32117552160204" lon="10.511045174717589"><ele>3.2857142857142856</ele><time>2026-04-25T06:41:43Z</time></trkpt><trkpt lat="43.32111079631488" lon="10.511093455585186"><ele>3.571428571428571</ele><time>2026-04-25T06:41:48Z</time></trkpt><trkpt lat="43.32104371100143" lon="10.511135985805273"><ele>3.8571428571428568</ele><time>2026-04-25T06:41:53Z</time></trkpt><trkpt lat="43.32098611662234" lon="10.511176495392721"><ele>4.142857142857142</ele><time>2026-04-25T06:41:57Z</time></trkpt><trkpt lat="43.320925218934256" lon="10.511220420530659"><ele>4.428571428571429</ele><time>2026-04-25T06:42:02Z</time></trkpt><trkpt lat="43.32086080911748" lon="10.511259624523017"><ele>4.714285714285714</ele><time>2026-04-25T06:42:07Z</time></trkpt><trkpt lat="43.32079319890494" lon="10.511302819851378"><ele>5.0</ele><time>2026-04-25T06:42:12Z</time></trkpt><trkpt lat="43.32072929653596" lon="10.511346193906105"><ele>5.0</ele><time>2026-04-25T06:42:17Z</time></trkpt><trkpt lat="43.32066371856763" lon="10.511381362536275"><ele>5.0</ele><time>2026-04-25T06:42:21Z</time></trkpt><trkpt lat="43.32059202722112" lon="10.51142121608736"><ele>5.0</ele><time>2026-04-25T06:42:26Z</time></trkpt><trkpt lat="43.32053354625786" lon="10.51145688512883"><ele>5.0</ele><time>2026-04-25T06:42:30Z</time></trkpt><trkpt lat="43.32047827989733" lon="10.511498917884284"><ele>5.0</ele><time>2026-04-25T06:42:34Z</time></trkpt><trkpt lat="43.32041069185125" lon="10.51153956854981"><ele>5.0</ele><time>2026-04-25T06:42:39Z</time></trkpt><trkpt lat="43.32034877137963" lon="10.511569818285965"><ele>5.0</ele><time>2026-04-25T06:42:44Z</time></trkpt><trkpt lat="43.32028291590989" lon="10.511611087894625"><ele>5.0</ele><time>2026-04-25T06:42:49Z</time></trkpt><trkpt lat="43.32022211091272" lon="10.511658318464127"><ele>5.0</ele><time>2026-04-25T06:42:54Z</time></trkpt><trkpt lat="43.32016238277461" lon="10.511688311846754"><ele>5.0</ele><time>2026-04-25T06:42:59Z</time></trkpt><trkpt lat="43.32009775387571" lon="10.511718100570864"><ele>5.0</ele><time>2026-04-25T06:43:04Z</time></trkpt><trkpt lat="43.32002990710722" lon="10.511757504956568"><ele>5.0</ele><time>2026-04-25T06:43:09Z</time></trkpt><trkpt lat="43.31996773467378" lon="10.511787518951254"><ele>5.0</ele><time>2026-04-25T06:43:13Z</time></trkpt><trkpt lat="43.31991035348818" lon="10.511839144418895"><ele>5.0</ele><time>2026-04-25T06:43:18Z</time></trkpt><trkpt lat="43.31984866383009" lon="10.511877811597158"><ele>5.0</ele><time>2026-04-25T06:43:23Z</time></trkpt><trkpt lat="43.3197829401022" lon="10.51192588932303"><ele>5.0</ele><time>2026-04-25T06:43:28Z</time></trkpt><trkpt lat="43.3197226685451" lon="10.511971715480055"><ele>5.0</ele><time>2026-04-25T06:43:32Z</time></trkpt><trkpt lat="43.31965505787789" lon="10.51201313507429"><ele>5.0</ele><time>2026-04-25T06:43:37Z</time></trkpt><trkpt lat="43.31958720137291" lon="10.512050377092155"><ele>5.0</ele><time>2026-04-25T06:43:42Z</time></trkpt><trkpt lat="43.31953093123812" lon="10.512095901365909"><ele>5.0</ele><time>2026-04-25T06:43:46Z</time></trkpt><trkpt lat="43.31946185065176" lon="10.512138820705237"><ele>5.0</ele><time>2026-04-25T06:43:50Z</time></trkpt><trkpt lat="43.31939812643304" lon="10.51216877605509"><ele>5.142857142857142</ele><time>2026-04-25T06:43:54Z</time></trkpt><trkpt lat="43.31933446000297" lon="10.51220982386611"><ele>5.285714285714286</ele><time>2026-04-25T06:43:59Z</time></trkpt><trkpt lat="43.31926813648782" lon="10.512247050004687"><ele>5.428571428571429</ele><time>2026-04-25T06:44:04Z</time></trkpt><trkpt lat="43.31920440450431" lon="10.512280905768774"><ele>5.571428571428571</ele><time>2026-04-25T06:44:09Z</time></trkpt><trkpt lat="43.31914105786574" lon="10.512324516053457"><ele>5.714285714285714</ele><time>2026-04-25T06:44:14Z</time></trkpt><trkpt lat="43.31907799533385" lon="10.512350095418197"><ele>5.857142857142857</ele><time>2026-04-25T06:44:18Z</time></trkpt><trkpt lat="43.31901901533966" lon="10.512393347289823"><ele>6.0</ele><time>2026-04-25T06:44:23Z</time></trkpt><trkpt lat="43.31895320753077" lon="10.512442799082311"><ele>5.857142857142857</ele><time>2026-04-25T06:44:28Z</time></trkpt><trkpt lat="43.3188899858045" lon="10.51249049496649"><ele>5.714285714285714</ele><time>2026-04-25T06:44:33Z</time></trkpt><trkpt lat="43.31882098247988" lon="10.512526270433227"><ele>5.571428571428571</ele><time>2026-04-25T06:44:38Z</time></trkpt><trkpt lat="43.31875640921244" lon="10.512547557295864"><ele>5.428571428571429</ele><time>2026-04-25T06:44:43Z</time></trkpt><trkpt lat="43.31868097047153" lon="10.512578658797285"><ele>5.285714285714286</ele><time>2026-04-25T06:44:48Z</time></trkpt><trkpt lat="43.31860950467596" lon="10.512593624264996"><ele>5.142857142857142</ele><time>2026-04-25T06:44:53Z</time></trkpt><trkpt lat="43.31853997109988" lon="10.512631904261685"><ele>5.0</ele><time>2026-04-25T06:44:58Z</time></trkpt><trkpt lat="43.31846789481866" lon="10.512663006462425"><ele>5.0</ele><time>2026-04-25T06:45:03Z</time></trkpt><trkpt lat="43.31840449722281" lon="10.512695084273217"><ele>5.0</ele><time>2026-04-25T06:45:07Z</time></trkpt><trkpt lat="43.31834385940019" lon="10.512729156170643"><ele>5.0</ele><time>2026-04-25T06:45:11Z</time></trkpt><trkpt lat="43.318270092142846" lon="10.512769275399497"><ele>5.0</ele><time>2026-04-25T06:45:16Z</time></trkpt><trkpt lat="43.31820863127498" lon="10.512803674618294"><ele>5.0</ele><time>2026-04-25T06:45:20Z</time></trkpt><trkpt lat="43.318145317988595" lon="10.512819563535206"><ele>5.0</ele><time>2026-04-25T06:45:24Z</time></trkpt><trkpt lat="43.31807227262225" lon="10.512850599289713"><ele>5.0</ele><time>2026-04-25T06:45:29Z</time></trkpt><trkpt lat="43.318007600993326" lon="10.512873068220772"><ele>4.571428571428571</ele><time>2026-04-25T06:45:34Z</time></trkpt><trkpt lat="43.317935479811084" lon="10.512904289634283"><ele>4.142857142857143</ele><time>2026-04-25T06:45:39Z</time></trkpt><trkpt lat="43.31786199640592" lon="10.512929770598092"><ele>3.7142857142857144</ele><time>2026-04-25T06:45:44Z</time></trkpt><trkpt lat="43.31779910730306" lon="10.512954465552532"><ele>3.2857142857142856</ele><time>2026-04-25T06:45:48Z</time></trkpt><trkpt lat="43.31772882428257" lon="10.512980046747158"><ele>2.8571428571428568</ele><time>2026-04-25T06:45:53Z</time></trkpt><trkpt lat="43.31766090428287" lon="10.512997099766977"><ele>2.4285714285714284</ele><time>2026-04-25T06:45:58Z</time></trkpt><trkpt lat="43.317593803083966" lon="10.513016812654525"><ele>2.0</ele><time>2026-04-25T06:46:03Z</time></trkpt><trkpt lat="43.31752796281974" lon="10.513033424988567"><ele>2.0</ele><time>2026-04-25T06:46:08Z</time></trkpt><trkpt lat="43.31745590704206" lon="10.513064953741747"><ele>1.9999999999999998</ele><time>2026-04-25T06:46:13Z</time></trkpt><trkpt lat="43.317385267423724" lon="10.513087055832605"><ele>2.0</ele><time>2026-04-25T06:46:18Z</time></trkpt><trkpt lat="43.31731672740557" lon="10.513114783874645"><ele>2.0</ele><time>2026-04-25T06:46:22Z</time></trkpt><trkpt lat="43.31725123841307" lon="10.513132417582028"><ele>1.9999999999999998</ele><time>2026-04-25T06:46:27Z</time></trkpt><trkpt lat="43.317186602114056" lon="10.513151704384379"><ele>2.0</ele><time>2026-04-25T06:46:32Z</time></trkpt><trkpt lat="43.31711490015169" lon="10.513191448033195"><ele>2.0</ele><time>2026-04-25T06:46:37Z</time></trkpt><trkpt lat="43.31703690222674" lon="10.513212879904456"><ele>2.142857142857143</ele><time>2026-04-25T06:46:42Z</time></trkpt><trkpt lat="43.31697313522339" lon="10.513248898289811"><ele>2.2857142857142856</ele><time>2026-04-25T06:46:46Z</time></trkpt><trkpt lat="43.31691352597407" lon="10.51328299167519"><ele>2.4285714285714284</ele><time>2026-04-25T06:46:50Z</time></trkpt><trkpt lat="43.31685951981248" lon="10.513327684365603"><ele>2.571428571428571</ele><time>2026-04-25T06:46:54Z</time></trkpt><trkpt lat="43.316787115841215" lon="10.513341718962375"><ele>2.7142857142857144</ele><time>2026-04-25T06:46:59Z</time></trkpt><trkpt lat="43.3167145907991" lon="10.513369768532268"><ele>2.8571428571428568</ele><time>2026-04-25T06:47:04Z</time></trkpt><trkpt lat="43.31664458694442" lon="10.51339546140589"><ele>3.0</ele><time>2026-04-25T06:47:09Z</time></trkpt><trkpt lat="43.3165770356083" lon="10.513408423843813"><ele>2.9999999999999996</ele><time>2026-04-25T06:47:14Z</time></trkpt><trkpt lat="43.31651259905865" lon="10.513425579735207"><ele>3.0</ele><time>2026-04-25T06:47:18Z</time></trkpt><trkpt lat="43.316446522218406" lon="10.513462731904058"><ele>3.0</ele><time>2026-04-25T06:47:23Z</time></trkpt><trkpt lat="43.31637741468013" lon="10.513496103199623"><ele>3.0</ele><time>2026-04-25T06:47:28Z</time></trkpt><trkpt lat="43.31631370961364" lon="10.513522004918842"><ele>3.0</ele><time>2026-04-25T06:47:33Z</time></trkpt><trkpt lat="43.31624476457401" lon="10.513547969179115"><ele>2.9999999999999996</ele><time>2026-04-25T06:47:38Z</time></trkpt><trkpt lat="43.3161773931655" lon="10.513565582349054"><ele>3.0</ele><time>2026-04-25T06:47:43Z</time></trkpt><trkpt lat="43.31610462409778" lon="10.513600108609504"><ele>3.1428571428571423</ele><time>2026-04-25T06:47:48Z</time></trkpt><trkpt lat="43.31604170439329" lon="10.513620746881834"><ele>3.2857142857142856</ele><time>2026-04-25T06:47:53Z</time></trkpt><trkpt lat="43.31597744168338" lon="10.513651233390336"><ele>3.4285714285714284</ele><time>2026-04-25T06:47:58Z</time></trkpt><trkpt lat="43.315914056401446" lon="10.513673834183422"><ele>3.571428571428571</ele><time>2026-04-25T06:48:03Z</time></trkpt><trkpt lat="43.31584956080615" lon="10.513714198218121"><ele>3.714285714285714</ele><time>2026-04-25T06:48:08Z</time></trkpt><trkpt lat="43.31578783570058" lon="10.513756506859034"><ele>3.8571428571428568</ele><time>2026-04-25T06:48:14Z</time></trkpt><trkpt lat="43.31572498371894" lon="10.513799152811007"><ele>4.0</ele><time>2026-04-25T06:48:20Z</time></trkpt><trkpt lat="43.315667012538924" lon="10.513840898650257"><ele>4.142857142857142</ele><time>2026-04-25T06:48:25Z</time></trkpt><trkpt lat="43.315605951573325" lon="10.513884962039112"><ele>4.285714285714286</ele><time>2026-04-25T06:48:30Z</time></trkpt><trkpt lat="43.31554377979203" lon="10.513931950220869"><ele>4.428571428571429</ele><time>2026-04-25T06:48:35Z</time></trkpt><trkpt lat="43.315487145671945" lon="10.513982346267646"><ele>4.571428571428571</ele><time>2026-04-25T06:48:40Z</time></trkpt><trkpt lat="43.31542664697252" lon="10.514031524846022"><ele>4.714285714285714</ele><time>2026-04-25T06:48:46Z</time></trkpt><trkpt lat="43.31536310139541" lon="10.514075899193976"><ele>4.857142857142857</ele><time>2026-04-25T06:48:51Z</time></trkpt><trkpt lat="43.315306341987075" lon="10.514133761272547"><ele>5.0</ele><time>2026-04-25T06:48:57Z</time></trkpt><trkpt lat="43.31524896590114" lon="10.51417871345331"><ele>5.0</ele><time>2026-04-25T06:49:02Z</time></trkpt><trkpt lat="43.31519285092627" lon="10.514218970747747"><ele>5.0</ele><time>2026-04-25T06:49:07Z</time></trkpt><trkpt lat="43.31513334978881" lon="10.514267240419407"><ele>5.0</ele><time>2026-04-25T06:49:12Z</time></trkpt><trkpt lat="43.31507207546194" lon="10.514323061320072"><ele>5.0</ele><time>2026-04-25T06:49:18Z</time></trkpt><trkpt lat="43.31501393127511" lon="10.514376201761142"><ele>5.0</ele><time>2026-04-25T06:49:23Z</time></trkpt><trkpt lat="43.31495246034395" lon="10.51443342105691"><ele>5.0</ele><time>2026-04-25T06:49:28Z</time></trkpt><trkpt lat="43.31489578771386" lon="10.514498927594898"><ele>5.0</ele><time>2026-04-25T06:49:36Z</time></trkpt><trkpt lat="43.31484020955997" lon="10.514542295168072"><ele>4.857142857142857</ele><time>2026-04-25T06:49:40Z</time></trkpt><trkpt lat="43.31477040622261" lon="10.51458947878896"><ele>4.714285714285714</ele><time>2026-04-25T06:49:50Z</time></trkpt><trkpt lat="43.314718489438185" lon="10.514646194371874"><ele>4.571428571428571</ele><time>2026-04-25T06:49:54Z</time></trkpt><trkpt lat="43.31465778037212" lon="10.514703900060475"><ele>4.428571428571429</ele><time>2026-04-25T06:49:59Z</time></trkpt><trkpt lat="43.314604271618144" lon="10.514752440203395"><ele>4.285714285714286</ele><time>2026-04-25T06:50:03Z</time></trkpt><trkpt lat="43.3145490856632" lon="10.514800902518498"><ele>4.142857142857142</ele><time>2026-04-25T06:50:07Z</time></trkpt><trkpt lat="43.314487352014574" lon="10.514855409885046"><ele>4.0</ele><time>2026-04-25T06:50:12Z</time></trkpt><trkpt lat="43.31442410203898" lon="10.51483316701895"><ele>4.714285714285714</ele><time>2026-04-25T06:50:17Z</time></trkpt><trkpt lat="43.31438371106828" lon="10.514764365014027"><ele>5.428571428571429</ele><time>2026-04-25T06:50:22Z</time></trkpt><trkpt lat="43.314322463501775" lon="10.514803929317164"><ele>6.142857142857143</ele><time>2026-04-25T06:50:28Z</time></trkpt><trkpt lat="43.314283054027854" lon="10.514887232292352"><ele>6.857142857142858</ele><time>2026-04-25T06:50:33Z</time></trkpt><trkpt lat="43.31426647095007" lon="10.514981086779171"><ele>7.571428571428571</ele><time>2026-04-25T06:50:39Z</time></trkpt><trkpt lat="43.314201755583746" lon="10.515022216504889"><ele>8.285714285714286</ele><time>2026-04-25T06:50:45Z</time></trkpt><trkpt lat="43.31414856377244" lon="10.515074723619579"><ele>9.0</ele><time>2026-04-25T06:50:50Z</time></trkpt><trkpt lat="43.31410089053374" lon="10.515136477787369"><ele>9.000000000000002</ele><time>2026-04-25T06:50:54Z</time></trkpt><trkpt lat="43.31403907203728" lon="10.515190971735114"><ele>9.0</ele><time>2026-04-25T06:51:00Z</time></trkpt><trkpt lat="43.31397510318661" lon="10.515250788046833"><ele>9.0</ele><time>2026-04-25T06:51:07Z</time></trkpt><trkpt lat="43.31392302115057" lon="10.515304943250058"><ele>9.0</ele><time>2026-04-25T06:51:12Z</time></trkpt><trkpt lat="43.31386406492369" lon="10.515362083350611"><ele>9.0</ele><time>2026-04-25T06:51:17Z</time></trkpt><trkpt lat="43.313793317275056" lon="10.51541192817452"><ele>9.000000000000002</ele><time>2026-04-25T06:51:22Z</time></trkpt><trkpt lat="43.31374090064236" lon="10.515494041379931"><ele>9.0</ele><time>2026-04-25T06:51:27Z</time></trkpt><trkpt lat="43.31367940872402" lon="10.51554387546354"><ele>9.428571428571429</ele><time>2026-04-25T06:51:32Z</time></trkpt><trkpt lat="43.31362225105211" lon="10.51558175195226"><ele>9.857142857142858</ele><time>2026-04-25T06:51:37Z</time></trkpt><trkpt lat="43.313563072689895" lon="10.515617800474134"><ele>10.285714285714285</ele><time>2026-04-25T06:51:42Z</time></trkpt><trkpt lat="43.31349625740906" lon="10.515668746280179"><ele>10.714285714285715</ele><time>2026-04-25T06:51:49Z</time></trkpt><trkpt lat="43.313438975474526" lon="10.515716083262376"><ele>11.142857142857142</ele><time>2026-04-25T06:51:54Z</time></trkpt><trkpt lat="43.31336587634155" lon="10.515741555595895"><ele>11.571428571428571</ele><time>2026-04-25T06:52:01Z</time></trkpt><trkpt lat="43.3133015115231" lon="10.515772644116835"><ele>12.0</ele><time>2026-04-25T06:52:07Z</time></trkpt><trkpt lat="43.31326486483998" lon="10.515852684605122"><ele>11.999999999999998</ele><time>2026-04-25T06:52:12Z</time></trkpt><trkpt lat="43.31320893303444" lon="10.515899498054818"><ele>12.0</ele><time>2026-04-25T06:52:17Z</time></trkpt><trkpt lat="43.31315823096923" lon="10.515969277996254"><ele>12.0</ele><time>2026-04-25T06:52:22Z</time></trkpt><trkpt lat="43.313112970956894" lon="10.516029700359866"><ele>12.0</ele><time>2026-04-25T06:52:28Z</time></trkpt><trkpt lat="43.31305818219184" lon="10.516095236750104"><ele>12.0</ele><time>2026-04-25T06:52:34Z</time></trkpt><trkpt lat="43.31300285614597" lon="10.516139178532443"><ele>11.999999999999998</ele><time>2026-04-25T06:52:38Z</time></trkpt><trkpt lat="43.31295910368928" lon="10.51620600944671"><ele>12.0</ele><time>2026-04-25T06:52:42Z</time></trkpt><trkpt lat="43.31290751471625" lon="10.516277854097646"><ele>12.285714285714285</ele><time>2026-04-25T06:52:46Z</time></trkpt><trkpt lat="43.31284383230617" lon="10.516298572182068"><ele>12.571428571428571</ele><time>2026-04-25T06:52:51Z</time></trkpt><trkpt lat="43.31277745701697" lon="10.516340486405758"><ele>12.857142857142858</ele><time>2026-04-25T06:52:57Z</time></trkpt><trkpt lat="43.31271005265054" lon="10.516352123504019"><ele>13.142857142857142</ele><time>2026-04-25T06:53:03Z</time></trkpt><trkpt lat="43.312645972034346" lon="10.516382085061442"><ele>13.428571428571429</ele><time>2026-04-25T06:53:08Z</time></trkpt><trkpt lat="43.31258781232912" lon="10.516421340271906"><ele>13.714285714285714</ele><time>2026-04-25T06:53:13Z</time></trkpt><trkpt lat="43.31252911056608" lon="10.516456558309455"><ele>14.0</ele><time>2026-04-25T06:53:18Z</time></trkpt><trkpt lat="43.312468460244666" lon="10.516510523766327"><ele>14.0</ele><time>2026-04-25T06:53:23Z</time></trkpt><trkpt lat="43.312409506374664" lon="10.516565841988081"><ele>14.0</ele><time>2026-04-25T06:53:29Z</time></trkpt><trkpt lat="43.31236214287282" lon="10.516630303418092"><ele>14.0</ele><time>2026-04-25T06:53:33Z</time></trkpt><trkpt lat="43.31230339228078" lon="10.51668108178059"><ele>14.0</ele><time>2026-04-25T06:53:38Z</time></trkpt><trkpt lat="43.31223633390446" lon="10.516743272219987"><ele>14.0</ele><time>2026-04-25T06:53:43Z</time></trkpt><trkpt lat="43.31216626108391" lon="10.516757082434939"><ele>14.0</ele><time>2026-04-25T06:53:50Z</time></trkpt><trkpt lat="43.312093743586416" lon="10.516793084176227"><ele>14.0</ele><time>2026-04-25T06:53:56Z</time></trkpt><trkpt lat="43.312036289652504" lon="10.516857534091454"><ele>14.142857142857142</ele><time>2026-04-25T06:54:02Z</time></trkpt><trkpt lat="43.311968982524235" lon="10.516890592221145"><ele>14.285714285714285</ele><time>2026-04-25T06:54:08Z</time></trkpt><trkpt lat="43.31190847343773" lon="10.516933387559599"><ele>14.428571428571429</ele><time>2026-04-25T06:54:12Z</time></trkpt><trkpt lat="43.3118375935352" lon="10.516982068735807"><ele>14.571428571428571</ele><time>2026-04-25T06:54:18Z</time></trkpt><trkpt lat="43.31177796542552" lon="10.517014860954951"><ele>14.714285714285714</ele><time>2026-04-25T06:54:23Z</time></trkpt><trkpt lat="43.311709116449336" lon="10.517059375549021"><ele>14.857142857142858</ele><time>2026-04-25T06:54:29Z</time></trkpt><trkpt lat="43.31164920188741" lon="10.51708705894069"><ele>15.0</ele><time>2026-04-25T06:54:34Z</time></trkpt><trkpt lat="43.31158305433374" lon="10.517113645750177"><ele>15.142857142857142</ele><time>2026-04-25T06:54:40Z</time></trkpt><trkpt lat="43.311521301125616" lon="10.517154999638828"><ele>15.285714285714285</ele><time>2026-04-25T06:54:45Z</time></trkpt><trkpt lat="43.31145660958315" lon="10.517212861377347"><ele>15.428571428571427</ele><time>2026-04-25T06:54:50Z</time></trkpt><trkpt lat="43.31140539406188" lon="10.517276095943467"><ele>15.571428571428571</ele><time>2026-04-25T06:54:55Z</time></trkpt><trkpt lat="43.31135083237479" lon="10.517349188719578"><ele>15.714285714285712</ele><time>2026-04-25T06:55:00Z</time></trkpt><trkpt lat="43.31129182193381" lon="10.517413682055853"><ele>15.857142857142856</ele><time>2026-04-25T06:55:05Z</time></trkpt><trkpt lat="43.31123223440928" lon="10.517457465388906"><ele>16.0</ele><time>2026-04-25T06:55:11Z</time></trkpt><trkpt lat="43.31117184247413" lon="10.51749486793294"><ele>16.0</ele><time>2026-04-25T06:55:17Z</time></trkpt><trkpt lat="43.31111755831014" lon="10.51755005304797"><ele>15.999999999999998</ele><time>2026-04-25T06:55:24Z</time></trkpt><trkpt lat="43.31105375575027" lon="10.517577523968157"><ele>16.0</ele><time>2026-04-25T06:55:30Z</time></trkpt><trkpt lat="43.3109881375651" lon="10.517598283106135"><ele>16.0</ele><time>2026-04-25T06:55:35Z</time></trkpt><trkpt lat="43.31092342153062" lon="10.517619908893558"><ele>15.999999999999998</ele><time>2026-04-25T06:55:41Z</time></trkpt><trkpt lat="43.310849782569925" lon="10.51765603706753"><ele>16.0</ele><time>2026-04-25T06:55:47Z</time></trkpt><trkpt lat="43.310793804642934" lon="10.517720548946281"><ele>16.0</ele><time>2026-04-25T06:55:52Z</time></trkpt><trkpt lat="43.310736071328385" lon="10.517766294509727"><ele>16.0</ele><time>2026-04-25T06:55:58Z</time></trkpt><trkpt lat="43.310670831659145" lon="10.517801637148802"><ele>15.999999999999998</ele><time>2026-04-25T06:56:04Z</time></trkpt><trkpt lat="43.310617624664225" lon="10.517868300770234"><ele>16.0</ele><time>2026-04-25T06:56:09Z</time></trkpt><trkpt lat="43.31055721777695" lon="10.517912741700703"><ele>16.0</ele><time>2026-04-25T06:56:14Z</time></trkpt><trkpt lat="43.3104931126008" lon="10.517952954946953"><ele>15.999999999999998</ele><time>2026-04-25T06:56:20Z</time></trkpt><trkpt lat="43.3104187755303" lon="10.517954531551277"><ele>16.0</ele><time>2026-04-25T06:56:25Z</time></trkpt><trkpt lat="43.3103514902562" lon="10.517962713936754"><ele>16.0</ele><time>2026-04-25T06:56:31Z</time></trkpt><trkpt lat="43.31028677761533" lon="10.517971159329672"><ele>16.285714285714285</ele><time>2026-04-25T06:56:37Z</time></trkpt><trkpt lat="43.31020777511211" lon="10.517960505908214"><ele>16.57142857142857</ele><time>2026-04-25T06:56:42Z</time></trkpt><trkpt lat="43.310134289896546" lon="10.517986271894129"><ele>16.857142857142858</ele><time>2026-04-25T06:56:48Z</time></trkpt><trkpt lat="43.31006135026982" lon="10.517983996266079"><ele>17.142857142857142</ele><time>2026-04-25T06:56:53Z</time></trkpt><trkpt lat="43.30999643151355" lon="10.517979984485413"><ele>17.42857142857143</ele><time>2026-04-25T06:56:57Z</time></trkpt><trkpt lat="43.309954060776256" lon="10.518047718719048"><ele>17.714285714285715</ele><time>2026-04-25T06:57:02Z</time></trkpt><trkpt lat="43.30988908639479" lon="10.518071488117918"><ele>18.0</ele><time>2026-04-25T06:57:07Z</time></trkpt><trkpt lat="43.30981757049934" lon="10.51806080028749"><ele>18.000000000000004</ele><time>2026-04-25T06:57:12Z</time></trkpt><trkpt lat="43.309745189556" lon="10.51806415699078"><ele>18.0</ele><time>2026-04-25T06:57:17Z</time></trkpt><trkpt lat="43.309687961313465" lon="10.518118353101872"><ele>18.0</ele><time>2026-04-25T06:57:21Z</time></trkpt><trkpt lat="43.30968811209903" lon="10.518219230844986"><ele>18.0</ele><time>2026-04-25T06:57:26Z</time></trkpt><trkpt lat="43.30962895491906" lon="10.518254769248113"><ele>18.0</ele><time>2026-04-25T06:57:30Z</time></trkpt><trkpt lat="43.30955734042519" lon="10.518289954920554"><ele>18.000000000000004</ele><time>2026-04-25T06:57:37Z</time></trkpt><trkpt lat="43.30949756970373" lon="10.518339018604584"><ele>18.0</ele><time>2026-04-25T06:57:43Z</time></trkpt><trkpt lat="43.309435328917765" lon="10.518361154512153"><ele>17.142857142857146</ele><time>2026-04-25T06:57:47Z</time></trkpt><trkpt lat="43.3093665803284" lon="10.518375719694463"><ele>16.285714285714285</ele><time>2026-04-25T06:57:53Z</time></trkpt><trkpt lat="43.30929676199495" lon="10.51839149741918"><ele>15.428571428571429</ele><time>2026-04-25T06:58:00Z</time></trkpt><trkpt lat="43.30923262050265" lon="10.518435258285615"><ele>14.571428571428573</ele><time>2026-04-25T06:58:06Z</time></trkpt><trkpt lat="43.309254205494476" lon="10.51853071276343"><ele>13.714285714285715</ele><time>2026-04-25T06:58:10Z</time></trkpt><trkpt lat="43.30928039994934" lon="10.518628377172446"><ele>12.857142857142856</ele><time>2026-04-25T06:58:14Z</time></trkpt><trkpt lat="43.30930880269018" lon="10.51871514601361"><ele>12.0</ele><time>2026-04-25T06:58:18Z</time></trkpt><trkpt lat="43.30932217939019" lon="10.518817532986562"><ele>11.857142857142856</ele><time>2026-04-25T06:58:22Z</time></trkpt><trkpt lat="43.30933516802454" lon="10.518916077652818"><ele>11.714285714285714</ele><time>2026-04-25T06:58:26Z</time></trkpt><trkpt lat="43.30936530882034" lon="10.51900229588342"><ele>11.571428571428571</ele><time>2026-04-25T06:58:32Z</time></trkpt><trkpt lat="43.30938535001478" lon="10.519108933781013"><ele>11.428571428571427</ele><time>2026-04-25T06:58:37Z</time></trkpt><trkpt lat="43.30940940000699" lon="10.519215660556958"><ele>11.285714285714285</ele><time>2026-04-25T06:58:42Z</time></trkpt><trkpt lat="43.309442376075346" lon="10.519302164002497"><ele>11.142857142857142</ele><time>2026-04-25T06:58:48Z</time></trkpt><trkpt lat="43.30949118311463" lon="10.519377070123182"><ele>11.0</ele><time>2026-04-25T06:58:55Z</time></trkpt><trkpt lat="43.30951578533307" lon="10.51946720615711"><ele>11.0</ele><time>2026-04-25T06:59:01Z</time></trkpt><trkpt lat="43.30955421383933" lon="10.519537955364758"><ele>11.0</ele><time>2026-04-25T06:59:06Z</time></trkpt><trkpt lat="43.3095777283343" lon="10.51963287148866"><ele>11.0</ele><time>2026-04-25T06:59:11Z</time></trkpt><trkpt lat="43.30960548656046" lon="10.519737871357645"><ele>11.0</ele><time>2026-04-25T06:59:16Z</time></trkpt><trkpt lat="43.30961425248734" lon="10.519826000450609"><ele>11.0</ele><time>2026-04-25T06:59:21Z</time></trkpt><trkpt lat="43.309605560774415" lon="10.51991832138411"><ele>11.0</ele><time>2026-04-25T06:59:24Z</time></trkpt><trkpt lat="43.30964123767456" lon="10.520011535279766"><ele>11.0</ele><time>2026-04-25T06:59:31Z</time></trkpt><trkpt lat="43.309675667895796" lon="10.520086896409081"><ele>11.142857142857142</ele><time>2026-04-25T06:59:35Z</time></trkpt><trkpt lat="43.30970047382364" lon="10.520189029856835"><ele>11.285714285714285</ele><time>2026-04-25T06:59:39Z</time></trkpt><trkpt lat="43.30974129232608" lon="10.520267707731644"><ele>11.428571428571427</ele><time>2026-04-25T06:59:45Z</time></trkpt><trkpt lat="43.30976499634539" lon="10.520353150457554"><ele>11.571428571428571</ele><time>2026-04-25T06:59:49Z</time></trkpt><trkpt lat="43.30978881373333" lon="10.520446892162466"><ele>11.714285714285714</ele><time>2026-04-25T06:59:54Z</time></trkpt><trkpt lat="43.30978935130538" lon="10.520542826874172"><ele>11.857142857142856</ele><time>2026-04-25T06:59:58Z</time></trkpt><trkpt lat="43.30981807730895" lon="10.520620735990363"><ele>12.0</ele><time>2026-04-25T07:00:05Z</time></trkpt><trkpt lat="43.30986925415975" lon="10.520687155438724"><ele>12.142857142857142</ele><time>2026-04-25T07:00:11Z</time></trkpt><trkpt lat="43.30989797682313" lon="10.520780438309188"><ele>12.285714285714285</ele><time>2026-04-25T07:00:15Z</time></trkpt><trkpt lat="43.30990213650211" lon="10.520887573698822"><ele>12.428571428571427</ele><time>2026-04-25T07:00:20Z</time></trkpt><trkpt lat="43.30992878179832" lon="10.520973056870623"><ele>12.571428571428571</ele><time>2026-04-25T07:00:26Z</time></trkpt><trkpt lat="43.30995626224009" lon="10.521066554814094"><ele>12.714285714285715</ele><time>2026-04-25T07:00:31Z</time></trkpt><trkpt lat="43.30995810361019" lon="10.521158714694456"><ele>12.857142857142856</ele><time>2026-04-25T07:00:35Z</time></trkpt><trkpt lat="43.30997883359887" lon="10.521243941029798"><ele>13.0</ele><time>2026-04-25T07:00:39Z</time></trkpt><trkpt lat="43.309995090251114" lon="10.521333276583565"><ele>13.0</ele><time>2026-04-25T07:00:43Z</time></trkpt><trkpt lat="43.31002762766192" lon="10.521414466024735"><ele>13.0</ele><time>2026-04-25T07:00:47Z</time></trkpt><trkpt lat="43.31005496342013" lon="10.52149646204604"><ele>13.0</ele><time>2026-04-25T07:00:51Z</time></trkpt><trkpt lat="43.31008789611554" lon="10.521584481258843"><ele>13.0</ele><time>2026-04-25T07:00:56Z</time></trkpt><trkpt lat="43.3101196719683" lon="10.521663555042757"><ele>13.0</ele><time>2026-04-25T07:01:02Z</time></trkpt><trkpt lat="43.31013824043667" lon="10.521747354577426"><ele>13.0</ele><time>2026-04-25T07:01:05Z</time></trkpt><trkpt lat="43.310176425320364" lon="10.521817082502906"><ele>13.0</ele><time>2026-04-25T07:01:10Z</time></trkpt><trkpt lat="43.310212874273354" lon="10.521888105981573"><ele>13.0</ele><time>2026-04-25T07:01:15Z</time></trkpt><trkpt lat="43.310232634405146" lon="10.521998675573457"><ele>13.0</ele><time>2026-04-25T07:01:21Z</time></trkpt><trkpt lat="43.31024668636369" lon="10.522083222104248"><ele>13.0</ele><time>2026-04-25T07:01:26Z</time></trkpt><trkpt lat="43.310286516090194" lon="10.522175365852492"><ele>13.0</ele><time>2026-04-25T07:01:32Z</time></trkpt><trkpt lat="43.31030066034308" lon="10.522280677856726"><ele>13.0</ele><time>2026-04-25T07:01:38Z</time></trkpt><trkpt lat="43.31030627232684" lon="10.522367537229785"><ele>13.0</ele><time>2026-04-25T07:01:43Z</time></trkpt><trkpt lat="43.31033503850709" lon="10.522445117301356"><ele>13.0</ele><time>2026-04-25T07:01:47Z</time></trkpt><trkpt lat="43.31034609798223" lon="10.522536653904531"><ele>13.0</ele><time>2026-04-25T07:01:51Z</time></trkpt><trkpt lat="43.31036737131665" lon="10.522632340933173"><ele>13.0</ele><time>2026-04-25T07:01:55Z</time></trkpt><trkpt lat="43.310376560069514" lon="10.522728663276379"><ele>13.0</ele><time>2026-04-25T07:02:00Z</time></trkpt><trkpt lat="43.310395758668264" lon="10.522818907847316"><ele>13.0</ele><time>2026-04-25T07:02:05Z</time></trkpt><trkpt lat="43.31043791491636" lon="10.52289397251332"><ele>13.0</ele><time>2026-04-25T07:02:10Z</time></trkpt><trkpt lat="43.31047653651403" lon="10.522974561839645"><ele>13.0</ele><time>2026-04-25T07:02:15Z</time></trkpt><trkpt lat="43.31050167394464" lon="10.523063883833542"><ele>13.0</ele><time>2026-04-25T07:02:20Z</time></trkpt><trkpt lat="43.310522312982485" lon="10.523147078343909"><ele>13.0</ele><time>2026-04-25T07:02:26Z</time></trkpt><trkpt lat="43.31054810600689" lon="10.523247378466474"><ele>13.0</ele><time>2026-04-25T07:02:31Z</time></trkpt><trkpt lat="43.3105698617012" lon="10.523334008975256"><ele>13.0</ele><time>2026-04-25T07:02:35Z</time></trkpt><trkpt lat="43.31060085040245" lon="10.523414130001425"><ele>13.0</ele><time>2026-04-25T07:02:39Z</time></trkpt><trkpt lat="43.31068216578177" lon="10.52351080426114"><ele>13.0</ele><time>2026-04-25T07:03:02Z</time></trkpt><trkpt lat="43.31074761075095" lon="10.523515015184254"><ele>13.0</ele><time>2026-04-25T07:03:19Z</time></trkpt><trkpt lat="43.31079328159478" lon="10.523449516874884"><ele>13.0</ele><time>2026-04-25T07:03:24Z</time></trkpt><trkpt lat="43.3108506439103" lon="10.52340307633828"><ele>13.285714285714285</ele><time>2026-04-25T07:03:29Z</time></trkpt><trkpt lat="43.310903993949125" lon="10.523356419403182"><ele>13.571428571428573</ele><time>2026-04-25T07:03:35Z</time></trkpt><trkpt lat="43.31096935622942" lon="10.523333469803822"><ele>13.857142857142858</ele><time>2026-04-25T07:03:39Z</time></trkpt><trkpt lat="43.31102683030263" lon="10.52328866800599"><ele>14.142857142857142</ele><time>2026-04-25T07:03:44Z</time></trkpt><trkpt lat="43.311083276455676" lon="10.523229633079684"><ele>14.428571428571427</ele><time>2026-04-25T07:03:50Z</time></trkpt><trkpt lat="43.31114333585233" lon="10.523193624743724"><ele>14.714285714285715</ele><time>2026-04-25T07:03:57Z</time></trkpt><trkpt lat="43.311203042825156" lon="10.523164648215404"><ele>15.0</ele><time>2026-04-25T07:04:04Z</time></trkpt><trkpt lat="43.31129348058831" lon="10.523214561810054"><ele>15.0</ele><time>2026-04-25T07:04:19Z</time></trkpt></trkseg></trk></gpx>